M I D A S
Marine Information and Data Acquisition System
Tripno 702 of the Zeeleeuw from 2004-01-22 07:48:36 to 2004-01-22 22:54:13
Back to CruiseResearch ActivitiesStationsMapUnderway DataData graphs

EquipmentUnitsComment
TimeDGPSUTC
LatitudeDGPSDM.mWGS84
LongitudeDGPSDM.mWGS84
TemperatureSBE03/SBE38deg celciusITS90
ConductivitySBE21S/mITS90
SalinitySBE21 Practical Salinity Units
ChlorophylAChelsea fluorimeterg/lCalibrated in Aceton
Missing or incorrect values are displayed as -999
Sea surface data collected by the RV Zeeleeuw from 2004-01-22 07:48:36 to 2004-01-22 22:54:13
                                                                                    Next 1000 lines
Time Latitude Longitude Temperature Conductivity Salinity ChlorophylA
2004-01-22 07:48:42 51°13.594 2°56.103 13.146742 0.07814 0.486145 -0.848668
2004-01-22 07:48:48 51°13.596 2°56.099 13.171511 0.07814 0.486154 -0.882377
2004-01-22 07:48:52 51°13.597 2°56.097 13.163241 0.07814 0.486182 -0.916087
2004-01-22 07:48:58 51°13.599 2°56.092 13.153673 0.07814 0.486191 -0.848668
2004-01-22 07:49:04 51°13.6 2°56.087 13.153673 0.07814 0.486191 -0.848668
2004-01-22 07:49:09 51°13.602 2°56.082 13.157786 0.07814 0.486201 -0.848668
2004-01-22 07:49:13 51°13.603 2°56.078 13.169276 0.07814 0.486219 -0.882377
2004-01-22 07:49:18 51°13.604 2°56.073 13.162436 0.07814 0.486201 -0.848668
2004-01-22 07:49:24 51°13.606 2°56.067 13.175177 0.07814 0.486201 -0.882377
2004-01-22 07:49:29 51°13.608 2°56.061 13.164716 0.07814 0.486201 -0.848668
2004-01-22 07:49:34 51°13.609 2°56.055 13.164716 0.07814 0.486201 -0.848668
2004-01-22 07:49:38 51°13.61 2°56.051 13.171198 0.078036 0.485528 -0.882377
2004-01-22 07:49:44 51°13.613 2°56.043 13.176384 0.07814 0.486201 -0.882377
2004-01-22 07:49:49 51°13.614 2°56.037 13.175847 0.07814 0.48621 -0.882377
2004-01-22 07:49:53 51°13.616 2°56.031 13.176965 0.078036 0.485565 -0.882377
2004-01-22 07:49:58 51°13.617 2°56.025 13.187915 0.078036 0.485584 -0.848668
2004-01-22 07:50:04 51°13.619 2°56.016 13.187915 0.078036 0.485584 -0.848668
2004-01-22 07:50:09 51°13.621 2°56.009 13.184071 0.078036 0.485612 -0.848668
2004-01-22 07:50:14 51°13.623 2°56.002 13.18425 0.078036 0.485639 -0.848668
2004-01-22 07:50:18 51°13.624 2°55.997 13.188496 0.078036 0.485658 -0.882377
2004-01-22 07:50:24 51°13.627 2°55.988 13.1813 0.078036 0.485667 -0.916087
2004-01-22 07:50:29 51°13.629 2°55.981 13.176562 0.078036 0.485676 -0.882377
2004-01-22 07:50:33 51°13.631 2°55.975 13.176562 0.078036 0.485676 -0.882377
2004-01-22 07:50:38 51°13.633 2°55.967 13.186932 0.078036 0.485686 -0.848668
2004-01-22 07:50:44 51°13.636 2°55.958 13.172182 0.078036 0.485695 -0.848668
2004-01-22 07:50:49 51°13.638 2°55.95 13.181524 0.078036 0.485695 -0.882377
2004-01-22 07:50:53 51°13.64 2°55.943 13.182284 0.078036 0.485704 -0.882377
2004-01-22 07:50:58 51°13.643 2°55.935 13.189658 0.078036 0.485713 -0.882377
2004-01-22 07:51:04 51°13.646 2°55.925 13.189658 0.078036 0.485713 -0.882377
2004-01-22 07:51:09 51°13.649 2°55.916 13.186217 0.078036 0.485732 -0.848668
2004-01-22 07:51:14 51°13.651 2°55.907 13.186351 0.078036 0.48576 -0.882377
2004-01-22 07:51:18 51°13.653 2°55.901 13.195199 0.078036 0.485769 -0.916087
2004-01-22 07:51:24 51°13.656 2°55.89 13.192026 0.078036 0.485778 -0.848668
2004-01-22 07:51:29 51°13.659 2°55.881 13.211016 0.078036 0.485788 -0.848668
2004-01-22 07:51:33 51°13.661 2°55.874 13.211016 0.078036 0.485788 -0.848668
2004-01-22 07:51:38 51°13.663 2°55.865 13.208023 0.078036 0.485797 -0.882377
2004-01-22 07:51:44 51°13.666 2°55.854 13.200651 0.078036 0.485806 -0.882377
2004-01-22 07:51:48 51°13.668 2°55.846 13.207666 0.078036 0.485806 -0.814958
2004-01-22 07:51:53 51°13.67 2°55.838 13.199802 0.078036 0.485806 -0.848668
2004-01-22 07:51:58 51°13.671 2°55.829 13.199623 0.078036 0.485815 -0.916087
2004-01-22 07:52:02 51°13.673 2°55.822 13.199623 0.078036 0.485815 -0.916087
2004-01-22 07:52:08 51°13.675 2°55.811 13.200606 0.078036 0.485834 -0.848668
2004-01-22 07:52:13 51°13.676 2°55.803 13.210123 0.078036 0.485843 -0.848668
2004-01-22 07:52:18 51°13.677 2°55.795 13.208604 0.078036 0.485862 -0.848668
2004-01-22 07:52:23 51°13.679 2°55.787 13.212178 0.078036 0.485871 -0.916087
2004-01-22 07:52:28 51°13.679 2°55.78 13.2208 0.078036 0.485871 -0.848668
2004-01-22 07:52:32 51°13.68 2°55.776 13.2208 0.078036 0.485871 -0.848668
2004-01-22 07:52:38 51°13.681 2°55.77 13.227276 0.078036 0.485852 -0.882377
2004-01-22 07:52:42 51°13.681 2°55.767 13.22138 0.078036 0.485852 -0.848668
2004-01-22 07:52:48 51°13.682 2°55.764 13.253489 0.078036 0.485862 -0.848668
2004-01-22 07:52:52 51°13.682 2°55.762 13.247015 0.078036 0.485899 -0.848668
2004-01-22 07:52:58 51°13.683 2°55.761 13.248757 0.078036 0.485917 -0.882377
2004-01-22 07:53:04 51°13.684 2°55.761 13.248757 0.078036 0.485917 -0.882377
2004-01-22 07:53:08 51°13.685 2°55.761 13.261659 0.078036 0.485917 -0.848668
2004-01-22 07:53:12 51°13.686 2°55.762 13.253311 0.078036 0.48588 -0.848668
2004-01-22 07:53:18 51°13.688 2°55.764 13.279023 0.078036 0.485871 -0.882377
2004-01-22 07:53:22 51°13.689 2°55.765 13.304769 0.078036 0.485862 -0.848668
2004-01-22 07:53:28 51°13.692 2°55.767 13.30352 0.078036 0.485862 -0.848668
2004-01-22 07:53:32 51°13.695 2°55.768 13.30352 0.078036 0.485862 -0.848668
2004-01-22 07:53:38 51°13.698 2°55.769 13.309855 0.078036 0.48588 -0.882377
2004-01-22 07:53:42 51°13.701 2°55.769 13.330372 0.078036 0.485927 -0.882377
2004-01-22 07:53:48 51°13.706 2°55.769 13.328232 0.078036 0.485982 -0.882377
2004-01-22 07:53:52 51°13.709 2°55.768 13.342145 0.078036 0.486047 -0.882377
2004-01-22 07:53:58 51°13.715 2°55.766 13.41474 0.078036 0.486093 -0.882377
2004-01-22 07:54:02 51°13.72 2°55.764 13.41474 0.078036 0.486093 -0.882377
2004-01-22 07:54:08 51°13.726 2°55.758 13.523951 0.078036 0.486131 -0.848668
2004-01-22 07:54:12 51°13.73 2°55.753 13.458864 0.078036 0.48614 -0.848668
2004-01-22 07:54:18 51°13.737 2°55.746 13.299817 0.078036 0.485964 -0.882377
2004-01-22 07:54:22 51°13.741 2°55.741 13.293883 0.078036 0.485713 -0.882377
2004-01-22 07:54:28 51°13.747 2°55.732 12.226912 0.078036 0.485491 -0.71383
2004-01-22 07:54:32 51°13.752 2°55.726 12.226912 0.078036 0.485491 -0.71383
2004-01-22 07:54:38 51°13.759 2°55.716 8.986323 0.078452 0.481244 -0.781249
2004-01-22 07:54:42 51°13.763 2°55.71 7.908218 0.003314 0.023194 3.061623
2004-01-22 07:54:48 51°13.771 2°55.699 7.310721 0.119944 0.753422 3.263879
2004-01-22 07:54:52 51°13.776 2°55.692 7.05252 1.31258 9.989779 3.533554
2004-01-22 07:54:58 51°13.784 2°55.681 6.898523 1.928534 15.988305 5.219024
2004-01-22 07:55:03 51°13.791 2°55.672 6.898523 1.928534 15.988305 5.219024
2004-01-22 07:55:08 51°13.799 2°55.663 6.778035 2.15626 18.866225 5.690956
2004-01-22 07:55:13 51°13.807 2°55.654 6.786712 1.906921 17.018079 5.657247
2004-01-22 07:55:18 51°13.815 2°55.646 6.690112 1.727118 15.557068 5.623537
2004-01-22 07:55:23 51°13.824 2°55.637 6.697764 1.650945 14.946348 5.724665
2004-01-22 07:55:28 51°13.833 2°55.63 6.67752 1.574372 14.279636 5.657247
2004-01-22 07:55:33 51°13.842 2°55.622 6.67752 1.574372 14.279636 5.657247
2004-01-22 07:55:38 51°13.851 2°55.615 6.676038 1.538925 13.986926 5.690956
2004-01-22 07:55:43 51°13.861 2°55.608 6.588518 1.525607 13.900588 5.690956
2004-01-22 07:55:48 51°13.87 2°55.601 6.651489 1.519211 13.866351 5.690956
2004-01-22 07:55:52 51°13.878 2°55.595 6.589556 1.514177 13.829467 5.724665
2004-01-22 07:55:58 51°13.89 2°55.586 6.524741 1.486915 13.58067 5.724665
2004-01-22 07:56:02 51°13.897 2°55.58 6.524741 1.486915 13.58067 5.724665
2004-01-22 07:56:08 51°13.909 2°55.572 6.512463 1.464479 13.377749 5.758375
2004-01-22 07:56:12 51°13.917 2°55.566 6.515335 1.472132 13.460583 5.758375
2004-01-22 07:56:18 51°13.929 2°55.557 6.543747 1.461124 13.36637 5.724665
2004-01-22 07:56:23 51°13.939 2°55.549 6.545529 1.497506 13.744427 5.690956
2004-01-22 07:56:28 51°13.949 2°55.542 6.551665 1.562419 14.401101 5.589828
2004-01-22 07:56:32 51°13.957 2°55.537 6.551665 1.562419 14.401101 5.589828
2004-01-22 07:56:38 51°13.97 2°55.528 6.53959 1.687251 15.661573 5.320153
2004-01-22 07:56:42 51°13.978 2°55.523 6.517117 1.823261 17.040825 5.151606
2004-01-22 07:56:48 51°13.99 2°55.514 6.537759 1.976971 18.611385 4.814512
2004-01-22 07:56:52 51°13.999 2°55.509 6.573779 2.103329 19.914612 4.713383
2004-01-22 07:56:58 51°14.011 2°55.5 6.564825 2.186331 20.776615 4.645965
2004-01-22 07:57:02 51°14.02 2°55.495 6.564825 2.186331 20.776615 4.645965
2004-01-22 07:57:08 51°14.032 2°55.486 6.582781 2.224686 21.180844 4.511127
2004-01-22 07:57:12 51°14.04 2°55.48 6.561709 2.255793 21.504031 4.443708
2004-01-22 07:57:18 51°14.053 2°55.471 6.54058 2.291212 21.866802 4.376289
2004-01-22 07:57:23 51°14.063 2°55.463 6.5288 2.320222 22.163531 4.34258
2004-01-22 07:57:28 51°14.074 2°55.455 6.514444 2.341456 22.385784 4.275161
2004-01-22 07:57:32 51°14.083 2°55.449 6.514444 2.341456 22.385784 4.275161
2004-01-22 07:57:38 51°14.096 2°55.439 6.506967 2.349024 22.466741 4.34258
2004-01-22 07:57:43 51°14.108 2°55.431 6.499688 2.354596 22.531848 4.34258
2004-01-22 07:57:48 51°14.119 2°55.423 6.482105 2.323271 22.21475 4.34258
2004-01-22 07:57:52 51°14.129 2°55.416 6.470017 2.2786 21.757789 4.477418
2004-01-22 07:57:58 51°14.144 2°55.405 6.478836 2.229205 21.254878 4.511127
2004-01-22 07:58:02 51°14.154 2°55.397 6.478836 2.229205 21.254878 4.511127
2004-01-22 07:58:08 51°14.169 2°55.385 6.46422 2.211761 21.076677 4.544836
2004-01-22 07:58:12 51°14.179 2°55.376 6.469472 2.192951 20.88749 4.612255
2004-01-22 07:58:18 51°14.193 2°55.361 6.45763 2.173827 20.698205 4.848221
2004-01-22 07:58:22 51°14.203 2°55.351 6.468135 2.19768 20.949801 4.949349
2004-01-22 07:58:28 51°14.218 2°55.336 6.480421 2.205456 21.036128 4.949349
2004-01-22 07:58:32 51°14.227 2°55.325 6.480421 2.205456 21.036128 4.949349
2004-01-22 07:58:38 51°14.241 2°55.307 6.460306 2.243918 21.440451 4.88193
2004-01-22 07:58:43 51°14.252 2°55.291 6.468878 2.263256 21.645967 4.949349
2004-01-22 07:58:48 51°14.263 2°55.274 6.457283 2.285537 21.877147 4.949349
2004-01-22 07:58:52 51°14.271 2°55.26 6.465459 2.296258 21.989517 5.016768
2004-01-22 07:58:58 51°14.282 2°55.238 6.458472 2.306664 22.100852 4.983059
2004-01-22 07:59:02 51°14.29 2°55.223 6.458472 2.306664 22.100852 4.983059
2004-01-22 07:59:08 51°14.301 2°55.199 6.449849 2.295943 21.991149 5.117896
2004-01-22 07:59:12 51°14.309 2°55.183 6.455053 2.286799 21.896373 5.084187
2004-01-22 07:59:18 51°14.32 2°55.159 6.460999 2.299622 22.031931 5.050477
2004-01-22 07:59:23 51°14.329 2°55.139 6.458125 2.291213 21.946485 5.084187
2004-01-22 07:59:28 51°14.339 2°55.119 6.459364 2.266304 21.690322 5.084187
2004-01-22 07:59:32 51°14.347 2°55.103 6.459364 2.266304 21.690322 5.084187
2004-01-22 07:59:38 51°14.36 2°55.079 6.462783 2.268511 21.7129 5.219024
2004-01-22 07:59:42 51°14.368 2°55.063 6.475071 2.271874 21.746507 5.050477
2004-01-22 07:59:48 51°14.381 2°55.04 6.461396 2.268301 21.710698 5.185315
2004-01-22 07:59:52 51°14.391 2°55.024 6.474625 2.281438 21.847828 4.983059
2004-01-22 07:59:58 51°14.405 2°55 6.46427 2.323902 22.291246 4.88193
2004-01-22 08:00:02 51°14.415 2°54.985 6.46427 2.323902 22.291246 4.88193
2004-01-22 08:00:08 51°14.43 2°54.962 6.461743 2.366476 22.73616 4.713383
2004-01-22 08:00:13 51°14.443 2°54.943 6.441176 2.408423 23.178245 4.645965
2004-01-22 08:00:18 51°14.456 2°54.925 6.444843 2.456367 23.681762 4.477418
2004-01-22 08:00:23 51°14.47 2°54.906 6.476309 2.490226 24.043147 4.443708
2004-01-22 08:00:28 51°14.484 2°54.888 6.470909 2.535446 24.527704 4.34258
2004-01-22 08:00:33 51°14.498 2°54.872 6.470909 2.535446 24.527704 4.34258
2004-01-22 08:00:38 51°14.512 2°54.855 6.485622 2.60139 25.233726 4.207742
2004-01-22 08:00:43 51°14.527 2°54.839 6.467441 2.68891 26.172565 3.938067
2004-01-22 08:00:48 51°14.542 2°54.823 6.485573 2.743302 26.753067 3.76952
2004-01-22 08:00:52 51°14.554 2°54.81 6.48478 2.821272 27.584776 3.600973
2004-01-22 08:00:58 51°14.572 2°54.791 6.487306 2.883046 28.244934 3.533554
2004-01-22 08:01:02 51°14.585 2°54.777 6.487306 2.883046 28.244934 3.533554
2004-01-22 08:01:08 51°14.603 2°54.757 6.498549 2.944407 28.908807 3.365007
2004-01-22 08:01:13 51°14.618 2°54.74 6.501273 3.001248 29.521107 3.297589
2004-01-22 08:01:18 51°14.632 2°54.722 6.510433 3.018933 29.707366 3.129042
2004-01-22 08:01:23 51°14.647 2°54.704 6.507215 3.04841 30.028754 3.027913
2004-01-22 08:01:28 51°14.661 2°54.684 6.514988 3.075572 30.321589 2.859366
2004-01-22 08:01:33 51°14.675 2°54.666 6.514988 3.075572 30.321589 2.859366
2004-01-22 08:01:38 51°14.689 2°54.647 6.51276 3.073255 30.291807 2.65711
2004-01-22 08:01:42 51°14.701 2°54.631 6.52484 3.103893 30.622043 2.589691
2004-01-22 08:01:48 51°14.718 2°54.609 6.533106 3.132847 30.935069 2.522272
2004-01-22 08:01:52 51°14.73 2°54.594 6.529642 3.105683 30.636981 2.454853
2004-01-22 08:01:58 51°14.748 2°54.572 6.543252 3.155907 31.183213 2.421144
2004-01-22 08:02:02 51°14.76 2°54.557 6.543252 3.155907 31.183213 2.421144
2004-01-22 08:02:08 51°14.778 2°54.536 6.531523 3.170438 31.337462 2.320016
2004-01-22 08:02:13 51°14.793 2°54.519 6.535631 3.194341 31.592808 2.286306
2004-01-22 08:02:18 51°14.808 2°54.501 6.539046 3.21814 31.851177 2.185178
2004-01-22 08:02:22 51°14.82 2°54.487 6.551368 3.228987 31.966117 2.151469
2004-01-22 08:02:28 51°14.838 2°54.465 6.546469 3.232778 32.007694 2.08405
2004-01-22 08:02:32 51°14.85 2°54.451 6.546469 3.232778 32.007694 2.08405
2004-01-22 08:02:38 51°14.867 2°54.428 6.545925 3.245626 32.145443 2.08405
2004-01-22 08:02:42 51°14.879 2°54.413 6.550675 3.254578 32.242888 1.982922
2004-01-22 08:02:48 51°14.896 2°54.391 6.542757 3.260159 32.301751 1.949212
2004-01-22 08:02:52 51°14.907 2°54.375 6.5435 3.262371 32.324422 1.881794
2004-01-22 08:02:58 51°14.924 2°54.353 6.544836 3.260265 32.299682 1.949212
2004-01-22 08:03:02 51°14.935 2°54.337 6.544836 3.260265 32.299682 1.949212
2004-01-22 08:03:08 51°14.95 2°54.313 6.541966 3.25026 32.189867 2.050341
2004-01-22 08:03:13 51°14.963 2°54.293 6.548696 3.254051 32.233889 2.016631
2004-01-22 08:03:18 51°14.976 2°54.274 6.541718 3.279011 32.50883 2.050341
2004-01-22 08:03:22 51°14.987 2°54.258 6.541421 3.250892 32.20082 2.117759
2004-01-22 08:03:28 51°15.002 2°54.235 6.536522 3.260475 32.306834 2.117759
2004-01-22 08:03:33 51°15.015 2°54.215 6.536522 3.260475 32.306834 2.117759
2004-01-22 08:03:38 51°15.029 2°54.196 6.538353 3.279538 32.516241 2.185178
2004-01-22 08:03:42 51°15.04 2°54.182 6.535482 3.272271 32.438009 2.252597
2004-01-22 08:03:48 51°15.058 2°54.162 6.546123 3.278906 32.51092 2.320016
2004-01-22 08:03:52 51°15.07 2°54.151 6.567052 3.274798 32.469025 2.421144
2004-01-22 08:03:57 51°15.086 2°54.138 6.582732 3.28849 32.618721 2.454853
2004-01-22 08:04:04 51°15.109 2°54.123 6.582732 3.28849 32.618721 2.454853
2004-01-22 08:04:08 51°15.123 2°54.116 6.630193 3.268374 32.400053 2.454853
2004-01-22 08:04:12 51°15.136 2°54.109 6.587084 3.284804 32.575749 2.522272
2004-01-22 08:04:18 51°15.157 2°54.098 6.587133 3.274588 32.454553 2.555982
2004-01-22 08:04:22 51°15.17 2°54.091 6.559581 3.284277 32.545581 2.6234
2004-01-22 08:04:28 51°15.191 2°54.08 6.549092 3.246573 32.10775 2.65711
2004-01-22 08:04:32 51°15.204 2°54.072 6.549092 3.246573 32.10775 2.65711
2004-01-22 08:04:38 51°15.224 2°54.058 6.544935 3.259211 32.24707 2.6234
2004-01-22 08:04:43 51°15.24 2°54.044 6.534344 3.268058 32.35699 2.758238
2004-01-22 08:04:48 51°15.256 2°54.03 6.526771 3.287436 32.581105 2.893076
2004-01-22 08:04:52 51°15.269 2°54.018 6.516177 3.280591 32.515639 2.893076
2004-01-22 08:04:58 51°15.287 2°54 6.515781 3.274904 32.461265 2.994204
2004-01-22 08:05:03 51°15.303 2°53.984 6.515781 3.274904 32.461265 2.994204
2004-01-22 08:05:08 51°15.319 2°53.969 6.517909 3.284488 32.57797 2.994204
2004-01-22 08:05:13 51°15.335 2°53.954 6.507958 3.284067 32.579848 2.960494
2004-01-22 08:05:18 51°15.351 2°53.939 6.512909 3.283119 32.576748 3.061623
2004-01-22 08:05:22 51°15.364 2°53.928 6.512909 3.287226 32.628454 3.095332
2004-01-22 08:05:28 51°15.384 2°53.913 6.510681 3.269428 32.435114 3.061623
2004-01-22 08:05:32 51°15.398 2°53.903 6.510681 3.269428 32.435114 3.061623
2004-01-22 08:05:38 51°15.419 2°53.889 6.512562 3.293862 32.707199 3.027913
2004-01-22 08:05:43 51°15.436 2°53.877 6.508849 3.287121 32.63382 2.960494
2004-01-22 08:05:48 51°15.453 2°53.865 6.504937 3.288069 32.643436 3.027913
2004-01-22 08:05:52 51°15.466 2°53.856 6.502214 3.290913 32.676369 3.027913
2004-01-22 08:05:58 51°15.487 2°53.841 6.498202 3.29165 32.684485 2.859366
2004-01-22 08:06:02 51°15.5 2°53.83 6.498202 3.29165 32.684485 2.859366
2004-01-22 08:06:08 51°15.52 2°53.813 6.496122 3.294704 32.718928 2.893076
2004-01-22 08:06:13 51°15.537 2°53.799 6.495677 3.293862 32.712105 2.758238
2004-01-22 08:06:18 51°15.554 2°53.784 6.486613 3.288806 32.660531 2.758238
2004-01-22 08:06:22 51°15.567 2°53.772 6.488396 3.300392 32.791394 2.690819
2004-01-22 08:06:27 51°15.584 2°53.757 6.485275 3.297759 32.764847 2.589691
2004-01-22 08:06:32 51°15.601 2°53.743 6.485275 3.297759 32.764847 2.589691
2004-01-22 08:06:38 51°15.621 2°53.726 6.489089 3.289754 32.679138 2.65711
2004-01-22 08:06:43 51°15.638 2°53.713 6.487158 3.30313 32.830595 2.522272
2004-01-22 08:06:48 51°15.655 2°53.699 6.490724 3.299549 32.792773 2.488563
2004-01-22 08:06:52 51°15.669 2°53.689 6.486563 3.306185 32.869193 2.488563
2004-01-22 08:06:58 51°15.689 2°53.673 6.485226 3.288701 32.675713 2.454853
2004-01-22 08:07:02 51°15.703 2°53.662 6.485226 3.288701 32.675713 2.454853
2004-01-22 08:07:08 51°15.724 2°53.646 6.484384 3.304183 32.847133 2.488563
2004-01-22 08:07:12 51°15.738 2°53.635 6.484631 3.305131 32.857583 2.488563
2004-01-22 08:07:18 51°15.759 2°53.618 6.482105 3.29639 32.762875 2.454853
2004-01-22 08:07:22 51°15.773 2°53.607 6.47948 3.295547 32.75359 2.454853
2004-01-22 08:07:28 51°15.793 2°53.59 6.479579 3.304499 32.853904 2.421144
2004-01-22 08:07:32 51°15.807 2°53.579 6.479579 3.304499 32.853904 2.421144
2004-01-22 08:07:38 51°15.827 2°53.563 6.468779 3.306395 32.876451 2.421144
2004-01-22 08:07:42 51°15.841 2°53.552 6.474972 3.317138 32.996586 2.387435
2004-01-22 08:07:48 51°15.862 2°53.535 6.468036 3.301656 32.826663 2.353725
2004-01-22 08:07:52 51°15.875 2°53.524 6.46318 3.316928 32.998391 2.320016
2004-01-22 08:07:58 51°15.895 2°53.506 6.464419 3.321351 33.052169 2.320016
2004-01-22 08:08:00 51°15.902 2°53.501 6.464419 3.321351 33.052169 2.320016
2004-01-22 08:08:08 51°15.929 2°53.477 6.460207 3.320825 33.046356 2.320016
2004-01-22 08:08:12 51°15.942 2°53.465 6.457432 3.30945 32.923314 2.286306
2004-01-22 08:08:18 51°15.963 2°53.448 6.452327 3.316507 33.006962 2.353725
2004-01-22 08:08:22 51°15.977 2°53.437 6.450692 3.318086 33.026882 2.320016
2004-01-22 08:08:28 51°15.997 2°53.419 6.448016 3.322405 33.076215 2.286306
2004-01-22 08:08:32 51°16.01 2°53.408 6.448016 3.322405 33.076215 2.286306
2004-01-22 08:08:38 51°16.031 2°53.391 6.445537 3.324195 33.098474 2.286306
2004-01-22 08:08:42 51°16.044 2°53.379 6.442811 3.321878 33.075371 2.252597
2004-01-22 08:08:48 51°16.065 2°53.363 6.439193 3.317876 33.034485 2.286306
2004-01-22 08:08:52 51°16.078 2°53.351 6.441324 3.322089 33.084327 2.185178
2004-01-22 08:08:58 51°16.098 2°53.334 6.437954 3.320193 33.063387 2.151469
2004-01-22 08:09:02 51°16.112 2°53.322 6.437954 3.320193 33.063387 2.151469
2004-01-22 08:09:08 51°16.132 2°53.305 6.442216 3.333675 33.215668 2.185178
2004-01-22 08:09:12 51°16.146 2°53.293 6.440135 3.334623 33.228644 2.218888
2004-01-22 08:09:17 51°16.162 2°53.279 6.441374 3.321352 33.083644 2.185178
2004-01-22 08:09:23 51°16.183 2°53.262 6.442563 3.33357 33.219498 2.185178
2004-01-22 08:09:28 51°16.2 2°53.248 6.444496 3.334307 33.228482 2.08405
2004-01-22 08:09:32 51°16.213 2°53.236 6.444496 3.334307 33.228482 2.08405
2004-01-22 08:09:38 51°16.234 2°53.22 6.445091 3.327566 33.15314 2.151469
2004-01-22 08:09:42 51°16.248 2°53.209 6.451237 3.341996 33.312665 2.117759
2004-01-22 08:09:48 51°16.268 2°53.193 6.450295 3.343471 33.328974 2.08405
2004-01-22 08:09:52 51°16.281 2°53.182 6.45758 3.340627 33.296689 2.050341
2004-01-22 08:09:58 51°16.302 2°53.165 6.463973 3.341996 33.31183 1.949212
2004-01-22 08:10:02 51°16.316 2°53.154 6.463973 3.341996 33.31183 1.949212
2004-01-22 08:10:08 51°16.336 2°53.138 6.474278 3.33852 33.270894 1.881794
2004-01-22 08:10:12 51°16.35 2°53.127 6.486217 3.338625 33.270391 1.881794
2004-01-22 08:10:18 51°16.37 2°53.111 6.497658 3.338625 33.265389 1.780665
2004-01-22 08:10:22 51°16.383 2°53.1 6.505284 3.335992 33.232953 1.713247
2004-01-22 08:10:28 51°16.404 2°53.083 6.514048 3.349158 33.370141 1.679537
2004-01-22 08:10:32 51°16.417 2°53.072 6.514048 3.349158 33.370141 1.679537
2004-01-22 08:10:38 51°16.437 2°53.056 6.521028 3.344945 33.313555 1.612118
2004-01-22 08:10:42 51°16.451 2°53.045 6.526028 3.327039 33.105836 1.5447
2004-01-22 08:10:48 51°16.471 2°53.029 6.53083 3.352318 33.376655 1.51099
2004-01-22 08:10:52 51°16.485 2°53.018 6.537907 3.358532 33.436952 1.477281
2004-01-22 08:10:58 51°16.506 2°53.002 6.540382 3.359796 33.44506 1.409862
2004-01-22 08:11:03 51°16.523 2°52.989 6.540382 3.359796 33.44506 1.409862
2004-01-22 08:11:08 51°16.54 2°52.975 6.546172 3.355899 33.394495 1.376153
2004-01-22 08:11:12 51°16.553 2°52.964 6.548349 3.358111 33.412237 1.477281
2004-01-22 08:11:18 51°16.573 2°52.948 6.551219 3.360007 33.428992 1.342443
2004-01-22 08:11:22 51°16.587 2°52.937 6.554634 3.357795 33.400398 1.443571
2004-01-22 08:11:28 51°16.607 2°52.92 6.557899 3.345998 33.266061 1.342443
2004-01-22 08:11:32 51°16.62 2°52.909 6.557899 3.345998 33.266061 1.342443
2004-01-22 08:11:38 51°16.64 2°52.893 6.561214 3.354635 33.358017 1.275024
2004-01-22 08:11:42 51°16.654 2°52.881 6.565963 3.358005 33.392708 1.376153
2004-01-22 08:11:48 51°16.674 2°52.865 6.572048 3.365905 33.477387 1.342443
2004-01-22 08:11:52 51°16.687 2°52.854 6.57279 3.343469 33.225725 1.376153
2004-01-22 08:11:56 51°16.7 2°52.843 6.574472 3.350632 33.301376 1.443571
2004-01-22 08:12:02 51°16.72 2°52.826 6.574472 3.350632 33.301376 1.443571
2004-01-22 08:12:08 51°16.74 2°52.811 6.579863 3.358637 33.387169 1.409862
2004-01-22 08:12:12 51°16.753 2°52.8 6.581446 3.36759 33.480934 1.443571
2004-01-22 08:12:18 51°16.773 2°52.784 6.58377 3.359269 33.385802 1.443571
2004-01-22 08:12:22 51°16.786 2°52.774 6.589161 3.372014 33.523055 1.477281
2004-01-22 08:12:28 51°16.805 2°52.758 6.590298 3.371593 33.515896 1.477281
2004-01-22 08:12:32 51°16.818 2°52.748 6.590298 3.371593 33.515896 1.477281
2004-01-22 08:12:38 51°16.836 2°52.731 6.593413 3.375174 33.552898 1.409862
2004-01-22 08:12:42 51°16.849 2°52.72 6.596529 3.371171 33.505392 1.443571
2004-01-22 08:12:48 51°16.868 2°52.703 6.600633 3.371171 33.502883 1.5447
2004-01-22 08:12:52 51°16.88 2°52.692 6.600682 3.36285 33.408617 1.5447
2004-01-22 08:12:58 51°16.899 2°52.674 6.603451 3.374331 33.531881 1.51099
2004-01-22 08:13:02 51°16.911 2°52.664 6.603451 3.374331 33.531881 1.51099
2004-01-22 08:13:08 51°16.93 2°52.647 6.604934 3.378229 33.572358 1.51099
2004-01-22 08:13:12 51°16.943 2°52.636 6.606961 3.383496 33.627104 1.5447
2004-01-22 08:13:16 51°16.956 2°52.624 6.609087 3.37549 33.537129 1.51099
2004-01-22 08:13:23 51°16.978 2°52.606 6.611608 3.38497 33.639177 1.51099
2004-01-22 08:13:28 51°16.995 2°52.593 6.614228 3.384865 33.635498 1.5447
2004-01-22 08:13:32 51°17.008 2°52.583 6.614228 3.384865 33.635498 1.5447
2004-01-22 08:13:38 51°17.028 2°52.569 6.622087 3.390026 33.691598 1.578409
2004-01-22 08:13:43 51°17.045 2°52.559 6.621099 3.376122 33.536569 1.578409
2004-01-22 08:13:48 51°17.062 2°52.548 6.62184 3.381915 33.599614 1.578409
2004-01-22 08:13:52 51°17.075 2°52.54 6.622186 3.371382 33.478469 1.578409
2004-01-22 08:13:58 51°17.095 2°52.527 6.625201 3.35337 33.275896 1.578409
2004-01-22 08:14:02 51°17.109 2°52.518 6.625201 3.35337 33.275896 1.578409
2004-01-22 08:14:08 51°17.129 2°52.505 6.624213 3.387814 33.652923 1.578409
2004-01-22 08:14:12 51°17.142 2°52.496 6.62446 3.382969 33.59866 1.578409
2004-01-22 08:14:18 51°17.162 2°52.482 6.625448 3.389816 33.674154 1.612118
2004-01-22 08:14:22 51°17.175 2°52.471 6.62614 3.39603 33.741018 1.578409
2004-01-22 08:14:28 51°17.194 2°52.457 6.628068 3.392344 33.699515 1.612118
2004-01-22 08:14:32 51°17.208 2°52.447 6.628068 3.392344 33.699515 1.612118
2004-01-22 08:14:36 51°17.221 2°52.438 6.629106 3.382337 33.590018 1.612118
2004-01-22 08:14:42 51°17.241 2°52.425 6.628611 3.40056 33.789302 1.578409
2004-01-22 08:14:48 51°17.262 2°52.414 6.629748 3.390447 33.676926 1.612118
2004-01-22 08:14:52 51°17.276 2°52.408 6.634344 3.400455 33.787297 1.612118
2004-01-22 08:14:58 51°17.297 2°52.398 6.63212 3.399507 33.775155 1.713247
2004-01-22 08:15:02 51°17.312 2°52.393 6.63212 3.399507 33.775155 1.713247
2004-01-22 08:15:08 51°17.333 2°52.383 6.632516 3.402772 33.811179 1.5447
2004-01-22 08:15:12 51°17.347 2°52.377 6.634295 3.402667 33.808331 1.645828
2004-01-22 08:15:18 51°17.368 2°52.367 6.636172 3.39424 33.712862 1.679537
2004-01-22 08:15:21 51°17.378 2°52.362 6.633454 3.375174 33.500215 1.679537
2004-01-22 08:15:28 51°17.402 2°52.349 6.634443 3.397505 33.74719 1.612118
2004-01-22 08:15:32 51°17.416 2°52.341 6.634443 3.397505 33.74719 1.612118
2004-01-22 08:15:38 51°17.437 2°52.329 6.635135 3.394766 33.716988 1.713247
2004-01-22 08:15:42 51°17.451 2°52.322 6.637605 3.400139 33.775391 1.612118
2004-01-22 08:15:48 51°17.471 2°52.31 6.637358 3.374858 33.497569 1.612118
2004-01-22 08:15:52 51°17.485 2°52.303 6.637161 3.400455 33.778876 1.612118
2004-01-22 08:15:58 51°17.506 2°52.292 6.63553 3.409619 33.878285 1.612118
2004-01-22 08:16:02 51°17.52 2°52.286 6.63553 3.409619 33.878285 1.612118
2004-01-22 08:16:08 51°17.541 2°52.275 6.638001 3.402351 33.798947 1.679537
2004-01-22 08:16:12 51°17.555 2°52.268 6.636469 3.380124 33.552251 1.578409
2004-01-22 08:16:18 51°17.575 2°52.257 6.637902 3.409514 33.877123 1.645828
2004-01-22 08:16:22 51°17.589 2°52.251 6.639533 3.401824 33.793138 1.612118
2004-01-22 08:16:28 51°17.61 2°52.239 6.639928 3.401403 33.786806 1.679537
2004-01-22 08:16:32 51°17.624 2°52.233 6.639928 3.401403 33.786806 1.679537
2004-01-22 08:16:38 51°17.645 2°52.221 6.638544 3.408882 33.869306 1.645828
2004-01-22 08:16:42 51°17.659 2°52.214 6.638297 3.413938 33.924251 1.612118
2004-01-22 08:16:48 51°17.679 2°52.203 6.637161 3.409092 33.870786 1.645828
2004-01-22 08:16:52 51°17.693 2°52.195 6.63721 3.406248 33.837723 1.645828
2004-01-22 08:16:58 51°17.714 2°52.185 6.636963 3.416466 33.951305 1.645828
2004-01-22 08:17:01 51°17.724 2°52.179 6.636963 3.416466 33.951305 1.645828
2004-01-22 08:17:08 51°17.748 2°52.166 6.636321 3.415518 33.942534 1.612118
2004-01-22 08:17:12 51°17.762 2°52.159 6.635481 3.395082 33.717952 1.645828
2004-01-22 08:17:18 51°17.783 2°52.148 6.638001 3.416361 33.952681 1.645828
2004-01-22 08:17:22 51°17.797 2°52.141 6.639038 3.404773 33.823985 1.679537
2004-01-22 08:17:28 51°17.818 2°52.13 6.636469 3.412885 33.915163 1.645828
2004-01-22 08:17:32 51°17.832 2°52.123 6.636469 3.412885 33.915163 1.645828
2004-01-22 08:17:38 51°17.852 2°52.112 6.637507 3.399822 33.771064 1.645828
2004-01-22 08:17:42 51°17.866 2°52.104 6.63805 3.409619 33.877441 1.679537
2004-01-22 08:17:48 51°17.887 2°52.093 6.638347 3.413517 33.920447 1.679537
2004-01-22 08:17:52 51°17.901 2°52.086 6.635481 3.418468 33.975087 1.713247
2004-01-22 08:17:58 51°17.921 2°52.075 6.636765 3.387709 33.636666 1.679537
2004-01-22 08:18:02 51°17.935 2°52.067 6.636765 3.387709 33.636666 1.679537
2004-01-22 08:18:08 51°17.956 2°52.056 6.636024 3.418468 33.975934 1.645828
2004-01-22 08:18:12 51°17.97 2°52.048 6.633207 3.3836 33.589716 1.713247
2004-01-22 08:18:18 51°17.991 2°52.036 6.629748 3.418573 33.977944 1.713247
2004-01-22 08:18:22 51°18.004 2°52.028 6.627919 3.401403 33.787648 1.645828
2004-01-22 08:18:28 51°18.025 2°52.017 6.624262 3.409724 33.880292 1.679537
2004-01-22 08:18:32 51°18.039 2°52.01 6.624262 3.409724 33.880292 1.679537
2004-01-22 08:18:38 51°18.06 2°51.999 6.621741 3.415308 33.943593 1.679537
2004-01-22 08:18:42 51°18.074 2°51.992 6.61843 3.420469 34.00396 1.713247
2004-01-22 08:18:47 51°18.091 2°51.982 6.60879 3.422049 34.020558 1.679537
2004-01-22 08:18:52 51°18.108 2°51.972 6.607159 3.422576 34.029767 1.780665
2004-01-22 08:18:58 51°18.129 2°51.961 6.601275 3.410251 33.897086 1.746956
2004-01-22 08:19:01 51°18.14 2°51.955 6.601275 3.410251 33.897086 1.746956
2004-01-22 08:19:08 51°18.164 2°51.941 6.595045 3.420996 34.019104 1.814375
2004-01-22 08:19:12 51°18.178 2°51.933 6.58466 3.418679 33.998597 1.814375
2004-01-22 08:19:16 51°18.192 2°51.925 6.57096 3.40509 33.852783 1.780665
2004-01-22 08:19:22 51°18.213 2°51.914 6.562896 3.398348 33.783429 1.814375
2004-01-22 08:19:28 51°18.234 2°51.902 6.549389 3.405617 33.87127 1.848084
2004-01-22 08:19:32 51°18.248 2°51.894 6.549389 3.405617 33.87127 1.848084
2004-01-22 08:19:38 51°18.269 2°51.882 6.538848 3.40667 33.892206 1.814375
2004-01-22 08:19:42 51°18.283 2°51.874 6.525682 3.39424 33.761672 1.915503
2004-01-22 08:19:48 51°18.304 2°51.863 6.513949 3.381284 33.629552 1.915503
2004-01-22 08:19:52 51°18.318 2°51.855 6.500926 3.390448 33.739172 1.881794
2004-01-22 08:19:56 51°18.332 2°51.847 6.490377 3.372647 33.554325 2.08405
2004-01-22 08:20:02 51°18.353 2°51.835 6.490377 3.372647 33.554325 2.08405
2004-01-22 08:20:08 51°18.374 2°51.822 6.48374 3.383707 33.686586 1.949212
2004-01-22 08:20:12 51°18.388 2°51.814 6.476507 3.37823 33.637833 2.08405
2004-01-22 08:20:18 51°18.409 2°51.802 6.465806 3.376755 33.633309 2.08405
2004-01-22 08:20:22 51°18.423 2°51.794 6.459562 3.37349 33.609823 2.016631
2004-01-22 08:20:28 51°18.444 2°51.782 6.450394 3.363062 33.501245 2.117759
2004-01-22 08:20:32 51°18.458 2°51.773 6.450394 3.363062 33.501245 2.117759
2004-01-22 08:20:38 51°18.479 2°51.761 6.436268 3.366538 33.549752 2.151469
2004-01-22 08:20:42 51°18.493 2°51.752 6.43488 3.357374 33.457635 2.117759
2004-01-22 08:20:48 51°18.514 2°51.74 6.425758 3.352529 33.410754 2.218888
2004-01-22 08:20:52 51°18.528 2°51.731 6.417379 3.344945 33.336927 2.218888
2004-01-22 08:20:58 51°18.549 2°51.719 6.411329 3.343049 33.323479 2.286306
2004-01-22 08:21:02 51°18.563 2°51.71 6.411329 3.343049 33.323479 2.286306
2004-01-22 08:21:07 51°18.58 2°51.699 6.402352 3.347684 33.382268 2.387435
2004-01-22 08:21:12 51°18.598 2°51.689 6.394069 3.341891 33.326536 2.353725
2004-01-22 08:21:18 51°18.619 2°51.677 6.383651 3.329041 33.190233 2.421144
2004-01-22 08:21:22 51°18.633 2°51.668 6.380823 3.336309 33.278968 2.387435
2004-01-22 08:21:28 51°18.654 2°51.656 6.371197 3.329146 33.208889 2.454853
2004-01-22 08:21:32 51°18.667 2°51.647 6.371197 3.329146 33.208889 2.454853
2004-01-22 08:21:37 51°18.685 2°51.636 6.363108 3.328409 33.204063 2.454853
2004-01-22 08:21:42 51°18.702 2°51.626 6.356309 3.319457 33.115818 2.522272
2004-01-22 08:21:48 51°18.723 2°51.613 6.345736 3.317245 33.101317 2.454853
2004-01-22 08:21:52 51°18.737 2°51.604 6.336154 3.311663 33.047015 2.454853
2004-01-22 08:21:58 51°18.758 2°51.591 6.333076 3.317666 33.122617 2.488563
2004-01-22 08:22:02 51°18.772 2°51.582 6.333076 3.317666 33.122617 2.488563
2004-01-22 08:22:08 51°18.793 2°51.569 6.32379 3.305238 32.990011 2.555982
2004-01-22 08:22:12 51°18.807 2°51.559 6.322052 3.306713 33.01214 2.555982
2004-01-22 08:22:18 51°18.828 2°51.547 6.317483 3.308714 33.042601 2.522272
2004-01-22 08:22:22 51°18.842 2°51.538 6.305662 3.294495 32.8918 2.589691
2004-01-22 08:22:28 51°18.862 2°51.525 6.299999 3.301868 32.98172 2.6234
2004-01-22 08:22:32 51°18.876 2°51.517 6.299999 3.301868 32.98172 2.6234
2004-01-22 08:22:38 51°18.897 2°51.505 6.290162 3.290599 32.861061 2.724529
2004-01-22 08:22:42 51°18.911 2°51.496 6.282957 3.297761 32.945343 2.859366
2004-01-22 08:22:48 51°18.932 2°51.484 6.278336 3.29439 32.916294 2.859366
2004-01-22 08:22:52 51°18.946 2°51.474 6.269688 3.292705 32.904251 2.994204
2004-01-22 08:22:58 51°18.967 2°51.461 6.265861 3.279225 32.763178 2.994204
2004-01-22 08:23:02 51°18.98 2°51.452 6.265861 3.279225 32.763178 2.994204
2004-01-22 08:23:08 51°19.001 2°51.439 6.256367 3.285122 32.833471 2.994204
2004-01-22 08:23:12 51°19.015 2°51.431 6.242346 3.280383 32.78922 3.095332
2004-01-22 08:23:18 51°19.036 2°51.418 6.238567 3.281226 32.80434 3.061623
2004-01-22 08:23:22 51°19.05 2°51.409 6.233694 3.267008 32.651748 3.23017
2004-01-22 08:23:28 51°19.071 2°51.397 6.229914 3.263849 32.624972 3.19646
2004-01-22 08:23:32 51°19.085 2°51.387 6.229914 3.263849 32.624972 3.19646
2004-01-22 08:23:38 51°19.106 2°51.375 6.219121 3.253949 32.523519 3.23017
2004-01-22 08:23:42 51°19.119 2°51.366 6.214644 3.25079 32.497539 3.23017
2004-01-22 08:23:48 51°19.141 2°51.355 6.209819 3.264165 32.650692 3.263879
2004-01-22 08:23:52 51°19.155 2°51.348 6.211162 3.256582 32.573214 3.297589
2004-01-22 08:23:58 51°19.176 2°51.337 6.203898 3.261848 32.637355 3.19646
2004-01-22 08:24:02 51°19.19 2°51.33 6.203898 3.261848 32.637355 3.19646
2004-01-22 08:24:08 51°19.211 2°51.319 6.200316 3.256266 32.580397 3.23017
2004-01-22 08:24:12 51°19.226 2°51.311 6.198575 3.257635 32.600515 3.297589
2004-01-22 08:24:18 51°19.247 2°51.3 6.195987 3.247525 32.490873 3.365007
2004-01-22 08:24:22 51°19.261 2°51.292 6.191111 3.251317 32.537836 3.331298
2004-01-22 08:24:28 51°19.283 2°51.28 6.185437 3.250369 32.531431 3.398717
2004-01-22 08:24:32 51°19.297 2°51.273 6.185437 3.250369 32.531431 3.398717
2004-01-22 08:24:38 51°19.318 2°51.261 6.180908 3.236152 32.377072 3.567264
2004-01-22 08:24:42 51°19.332 2°51.253 6.180659 3.247841 32.509968 3.533554
2004-01-22 08:24:48 51°19.354 2°51.241 6.172297 3.24384 32.468863 3.600973
2004-01-22 08:24:52 51°19.368 2°51.233 6.162042 3.232255 32.344502 3.600973
2004-01-22 08:24:58 51°19.389 2°51.221 6.161544 3.244261 32.48256 3.600973
2004-01-22 08:25:02 51°19.404 2°51.213 6.161544 3.244261 32.48256 3.600973
2004-01-22 08:25:08 51°19.425 2°51.202 6.151985 3.239627 32.435255 3.634683
2004-01-22 08:25:12 51°19.439 2°51.194 6.145063 3.243735 32.484926 3.634683
2004-01-22 08:25:18 51°19.46 2°51.182 6.143569 3.231097 32.351274 3.600973
2004-01-22 08:25:22 51°19.475 2°51.174 6.139037 3.229518 32.338657 3.567264
2004-01-22 08:25:28 51°19.496 2°51.162 6.131566 3.226674 32.312834 3.634683
2004-01-22 08:25:32 51°19.51 2°51.154 6.131566 3.226674 32.312834 3.634683
2004-01-22 08:25:38 51°19.532 2°51.142 6.128278 3.218355 32.226262 3.499845
2004-01-22 08:25:42 51°19.546 2°51.134 6.131516 3.224042 32.295062 3.466136
2004-01-22 08:25:48 51°19.567 2°51.122 6.127182 3.228359 32.348706 3.398717
2004-01-22 08:25:52 51°19.582 2°51.114 6.127381 3.226148 32.328247 3.432426
2004-01-22 08:25:58 51°19.603 2°51.102 6.125289 3.226675 32.336547 3.398717
2004-01-22 08:26:02 51°19.618 2°51.094 6.125289 3.226675 32.336547 3.398717
2004-01-22 08:26:08 51°19.639 2°51.083 6.128079 3.224779 32.317139 3.365007
2004-01-22 08:26:12 51°19.653 2°51.075 6.133309 3.224253 32.312929 3.331298
2004-01-22 08:26:18 51°19.675 2°51.064 6.135152 3.206666 32.118579 3.331298
2004-01-22 08:26:22 51°19.689 2°51.057 6.135501 3.222041 32.289196 3.331298
2004-01-22 08:26:28 51°19.71 2°51.046 6.137792 3.215828 32.221048 3.263879
2004-01-22 08:26:32 51°19.725 2°51.038 6.137792 3.215828 32.221048 3.263879
2004-01-22 08:26:38 51°19.746 2°51.027 6.140282 3.213827 32.196399 3.263879
2004-01-22 08:26:41 51°19.757 2°51.021 6.139883 3.226148 32.329065 3.263879
2004-01-22 08:26:48 51°19.782 2°51.008 6.141079 3.213406 32.187652 3.263879
2004-01-22 08:26:52 51°19.796 2°51 6.142772 3.219092 32.250751 3.23017
2004-01-22 08:26:58 51°19.817 2°50.99 6.146407 3.218882 32.247598 3.162751
2004-01-22 08:27:02 51°19.832 2°50.983 6.146407 3.218882 32.247598 3.162751
2004-01-22 08:27:08 51°19.853 2°50.972 6.149744 3.219724 32.256947 3.23017
2004-01-22 08:27:12 51°19.868 2°50.965 6.158109 3.218671 32.242813 3.162751
2004-01-22 08:27:18 51°19.889 2°50.954 6.165975 3.224252 32.303119 3.129042
2004-01-22 08:27:22 51°19.904 2°50.946 6.178669 3.230782 32.373137 3.19646
2004-01-22 08:27:28 51°19.925 2°50.935 6.184989 3.221936 32.273324 3.095332
2004-01-22 08:27:32 51°19.94 2°50.928 6.184989 3.221936 32.273324 3.095332
2004-01-22 08:27:38 51°19.962 2°50.918 6.1933 3.224674 32.299622 3.19646
2004-01-22 08:27:42 51°19.976 2°50.911 6.19962 3.238153 32.441855 3.19646
2004-01-22 08:27:48 51°19.998 2°50.9 6.210267 3.218671 32.21673 3.19646
2004-01-22 08:27:52 51°20.012 2°50.892 6.220365 3.203191 32.038684 3.23017
2004-01-22 08:27:58 51°20.034 2°50.881 6.230461 3.239417 32.429641 3.19646
2004-01-22 08:28:02 51°20.048 2°50.873 6.230461 3.239417 32.429641 3.19646
2004-01-22 08:28:08 51°20.07 2°50.862 6.238169 3.242997 32.463619 3.263879
2004-01-22 08:28:12 51°20.085 2°50.855 6.242744 3.220882 32.211124 3.263879
2004-01-22 08:28:18 51°20.106 2°50.844 6.249605 3.248684 32.511102 3.331298
2004-01-22 08:28:22 51°20.121 2°50.835 6.254477 3.261427 32.642568 3.263879
2004-01-22 08:28:28 51°20.143 2°50.824 6.258106 3.263744 32.660027 3.263879
2004-01-22 08:28:32 51°20.158 2°50.816 6.258106 3.263744 32.660027 3.263879
2004-01-22 08:28:38 51°20.18 2°50.805 6.262332 3.265534 32.674937 3.263879
2004-01-22 08:28:42 51°20.194 2°50.796 6.263177 3.265745 32.670679 3.263879
2004-01-22 08:28:48 51°20.216 2°50.785 6.264618 3.252264 32.515512 3.263879
2004-01-22 08:28:52 51°20.231 2°50.777 6.262729 3.262796 32.628107 3.23017
2004-01-22 08:28:58 51°20.253 2°50.765 6.260145 3.270905 32.713878 3.162751
2004-01-22 08:29:02 51°20.268 2°50.758 6.260145 3.270905 32.713878 3.162751
2004-01-22 08:29:08 51°20.289 2°50.746 6.258106 3.256055 32.546851 3.162751
2004-01-22 08:29:12 51°20.304 2°50.739 6.253732 3.264902 32.644045 3.129042
2004-01-22 08:29:18 51°20.326 2°50.727 6.248412 3.264165 32.63423 3.027913
2004-01-22 08:29:22 51°20.341 2°50.719 6.244832 3.269009 32.69039 2.893076
2004-01-22 08:29:28 51°20.362 2°50.708 6.248014 3.255529 32.541838 2.859366
2004-01-22 08:29:32 51°20.377 2°50.701 6.248014 3.255529 32.541838 2.859366
2004-01-22 08:29:38 51°20.399 2°50.689 6.248661 3.268904 32.69252 2.724529
2004-01-22 08:29:42 51°20.413 2°50.682 6.251892 3.254476 32.536734 2.65711
2004-01-22 08:29:48 51°20.435 2°50.67 6.254825 3.232465 32.294632 2.690819
2004-01-22 08:29:52 51°20.45 2°50.662 6.258206 3.242259 32.404694 2.6234
2004-01-22 08:29:58 51°20.472 2°50.651 6.264569 3.267114 32.68009 2.589691
2004-01-22 08:30:02 51°20.487 2°50.643 6.264569 3.267114 32.68009 2.589691
2004-01-22 08:30:08 51°20.508 2°50.63 6.270284 3.264797 32.651933 2.555982
2004-01-22 08:30:12 51°20.523 2°50.623 6.277491 3.269431 32.70248 2.589691
2004-01-22 08:30:18 51°20.545 2°50.61 6.282013 3.241417 32.38883 2.555982
2004-01-22 08:30:22 51°20.56 2°50.603 6.283255 3.259847 32.588853 2.555982
2004-01-22 08:30:28 51°20.581 2°50.59 6.284547 3.270589 32.70213 2.555982
2004-01-22 08:30:32 51°20.596 2°50.583 6.284547 3.270589 32.70213 2.555982
2004-01-22 08:30:38 51°20.618 2°50.571 6.28569 3.266903 32.657988 2.488563
2004-01-22 08:30:42 51°20.633 2°50.564 6.288423 3.274064 32.730752 2.488563
2004-01-22 08:30:48 51°20.655 2°50.552 6.291603 3.268798 32.669936 2.488563
2004-01-22 08:30:52 51°20.669 2°50.544 6.292745 3.281752 32.810177 2.454853
2004-01-22 08:30:58 51°20.691 2°50.532 6.294286 3.274801 32.732323 2.454853
2004-01-22 08:31:00 51°20.699 2°50.528 6.294286 3.274801 32.732323 2.454853
2004-01-22 08:31:08 51°20.728 2°50.512 6.296919 3.264691 32.617864 2.454853
2004-01-22 08:31:12 51°20.742 2°50.505 6.300446 3.264796 32.616566 2.421144
2004-01-22 08:31:18 51°20.764 2°50.494 6.306457 3.278172 32.763888 2.454853
2004-01-22 08:31:22 51°20.779 2°50.488 6.319172 3.273432 32.711385 2.454853
2004-01-22 08:31:28 51°20.801 2°50.478 6.332232 3.266271 32.628783 2.421144
2004-01-22 08:31:32 51°20.815 2°50.472 6.332232 3.266271 32.628783 2.421144
2004-01-22 08:31:36 51°20.83 2°50.466 6.339282 3.269325 32.658489 2.353725
2004-01-22 08:31:50 51°20.881 2°50.445 6.339778 3.27775 32.738605 2.387435
2004-01-22 08:31:56 51°20.903 2°50.435 6.333572 3.295444 32.928791 2.421144
2004-01-22 08:32:01 51°20.921 2°50.427 6.330692 3.297234 32.937024 2.454853
2004-01-22 08:32:06 51°20.94 2°50.42 6.324833 3.300499 32.969043 2.387435
2004-01-22 08:32:08 51°20.947 2°50.417 6.320463 3.284911 32.791501 2.320016
2004-01-22 08:32:16 51°20.976 2°50.403 6.316589 3.299762 32.959218 2.286306
2004-01-22 08:32:20 51°20.991 2°50.397 6.316589 3.299762 32.959218 2.286306
2004-01-22 08:32:26 51°21.013 2°50.387 6.313609 3.294812 32.90771 2.252597
2004-01-22 08:32:30 51°21.028 2°50.381 6.313361 3.287755 32.832882 2.218888
2004-01-22 08:32:36 51°21.05 2°50.37 6.307152 3.28944 32.855673 2.252597
2004-01-22 08:32:50 51°21.102 2°50.347 6.299403 3.283121 32.793956 2.185178
2004-01-22 08:32:56 51°21.123 2°50.336 6.29672 3.289124 32.862097 2.185178
2004-01-22 08:33:00 51°21.138 2°50.33 6.297664 3.282384 32.79157 2.117759
2004-01-22 08:33:06 51°21.161 2°50.322 6.297863 3.286386 32.840032 2.117759
2004-01-22 08:33:08 51°21.168 2°50.319 6.295279 3.232149 32.241545 2.151469
2004-01-22 08:33:16 51°21.199 2°50.309 6.29821 3.269851 32.662675 2.117759
2004-01-22 08:33:20 51°21.213 2°50.303 6.29821 3.269851 32.662675 2.117759
2004-01-22 08:33:26 51°21.236 2°50.295 6.29667 3.242154 32.356205 2.185178
2004-01-22 08:33:30 51°21.251 2°50.29 6.298707 3.235098 32.277384 2.218888
2004-01-22 08:33:36 51°21.273 2°50.283 6.298459 3.280383 32.780962 2.218888
2004-01-22 08:33:40 51°21.288 2°50.278 6.299403 3.278277 32.758454 2.218888
2004-01-22 08:33:46 51°21.31 2°50.271 6.301539 3.251 32.456496 2.151469
2004-01-22 08:33:50 51°21.325 2°50.266 6.301539 3.251 32.456496 2.151469
2004-01-22 08:33:56 51°21.348 2°50.258 6.29975 3.278593 32.760304 2.151469
2004-01-22 08:34:00 51°21.362 2°50.253 6.297266 3.27933 32.769295 2.151469
2004-01-22 08:34:06 51°21.385 2°50.245 6.297565 3.284175 32.822141 2.218888
2004-01-22 08:34:08 51°21.392 2°50.243 6.296819 3.283121 32.809646 2.151469
2004-01-22 08:34:16 51°21.422 2°50.234 6.299899 3.286492 32.84616 2.185178
2004-01-22 08:34:20 51°21.437 2°50.229 6.299899 3.286492 32.84616 2.185178
2004-01-22 08:34:26 51°21.46 2°50.222 6.296521 3.285965 32.841153 2.252597
2004-01-22 08:34:30 51°21.475 2°50.217 6.29672 3.285122 32.83099 2.218888
2004-01-22 08:34:36 51°21.497 2°50.21 6.298409 3.280383 32.780137 2.185178
2004-01-22 08:34:40 51°21.512 2°50.205 6.303526 3.284491 32.826469 2.185178
2004-01-22 08:34:45 51°21.531 2°50.199 6.309785 3.270589 32.673305 2.08405
2004-01-22 08:34:50 51°21.549 2°50.193 6.309785 3.270589 32.673305 2.08405
2004-01-22 08:34:56 51°21.572 2°50.186 6.314553 3.284701 32.828803 2.151469
2004-01-22 08:35:01 51°21.591 2°50.181 6.318476 3.277961 32.754954 2.151469
2004-01-22 08:35:06 51°21.609 2°50.174 6.322449 3.277013 32.740332 2.218888
2004-01-22 08:35:08 51°21.617 2°50.172 6.327266 3.288177 32.860695 2.185178
2004-01-22 08:35:16 51°21.646 2°50.164 6.331983 3.288809 32.86356 2.218888
2004-01-22 08:35:20 51°21.661 2°50.159 6.331983 3.288809 32.86356 2.218888
2004-01-22 08:35:26 51°21.684 2°50.152 6.334317 3.288703 32.85743 2.151469
2004-01-22 08:35:30 51°21.699 2°50.148 6.336998 3.293864 32.91046 2.151469
2004-01-22 08:35:36 51°21.721 2°50.142 6.340275 3.290494 32.869818 2.117759
2004-01-22 08:35:40 51°21.736 2°50.137 6.343154 3.294812 32.912678 2.117759
2004-01-22 08:35:46 51°21.759 2°50.13 6.344743 3.295654 32.918697 2.151469
2004-01-22 08:35:50 51°21.774 2°50.125 6.344743 3.295654 32.918697 2.151469
2004-01-22 08:35:56 51°21.797 2°50.117 6.343154 3.298814 32.952036 2.218888
2004-01-22 08:36:00 51°21.812 2°50.112 6.3438 3.29597 32.917228 2.185178
2004-01-22 08:36:06 51°21.834 2°50.106 6.35338 3.300499 32.964067 2.185178
2004-01-22 08:36:10 51°21.849 2°50.101 6.357152 3.28786 32.822487 2.151469
2004-01-22 08:36:16 51°21.872 2°50.095 6.357996 3.290599 32.852797 2.185178
2004-01-22 08:36:20 51°21.887 2°50.09 6.357996 3.290599 32.852797 2.185178
2004-01-22 08:36:26 51°21.91 2°50.083 6.361967 3.302711 32.986075 2.151469
2004-01-22 08:36:31 51°21.929 2°50.077 6.359932 3.295549 32.901804 2.08405
2004-01-22 08:36:36 51°21.948 2°50.07 6.36157 3.302816 32.978947 2.08405
2004-01-22 08:36:40 51°21.963 2°50.066 6.364001 3.3025 32.969646 2.151469
2004-01-22 08:36:46 51°21.986 2°50.058 6.362562 3.301868 32.962651 2.08405
2004-01-22 08:36:50 51°22.001 2°50.053 6.362562 3.301868 32.962651 2.08405
2004-01-22 08:36:56 51°22.023 2°50.045 6.36415 3.300499 32.945838 2.08405
2004-01-22 08:37:00 51°22.038 2°50.041 6.369758 3.309767 33.047619 2.050341
2004-01-22 08:37:06 51°22.061 2°50.034 6.389207 3.291441 32.843126 2.050341
2004-01-22 08:37:10 51°22.075 2°50.028 6.435921 3.311242 33.061454 2.016631
2004-01-22 08:37:16 51°22.098 2°50.021 6.483245 3.308293 33.027971 2.016631
2004-01-22 08:37:20 51°22.113 2°50.016 6.483245 3.308293 33.027971 2.016631
2004-01-22 08:37:26 51°22.134 2°50.009 6.527959 3.307134 33.013485 1.949212
2004-01-22 08:37:30 51°22.149 2°50.003 6.562847 3.316192 33.102962 1.982922
2004-01-22 08:37:36 51°22.171 2°49.996 6.58466 3.325144 33.177926 2.08405
2004-01-22 08:37:40 51°22.186 2°49.992 6.592474 3.339784 33.29989 2.050341
2004-01-22 08:37:46 51°22.208 2°49.985 6.607604 3.33694 33.225118 2.050341
2004-01-22 08:37:50 51°22.222 2°49.98 6.607604 3.33694 33.225118 2.050341
2004-01-22 08:37:56 51°22.244 2°49.974 6.62184 3.359902 33.44957 2.08405
2004-01-22 08:38:00 51°22.258 2°49.969 6.626783 3.367801 33.504176 2.016631
2004-01-22 08:38:06 51°22.28 2°49.963 6.635431 3.374858 33.563656 2.117759
2004-01-22 08:38:11 51°22.299 2°49.956 6.643535 3.374437 33.543088 2.117759
2004-01-22 08:38:16 51°22.317 2°49.95 6.650254 3.378545 33.574168 2.08405
2004-01-22 08:38:20 51°22.331 2°49.945 6.650254 3.378545 33.574168 2.08405
2004-01-22 08:38:26 51°22.353 2°49.939 6.655639 3.384022 33.624525 2.050341
2004-01-22 08:38:30 51°22.368 2°49.934 6.658406 3.38813 33.661444 2.050341
2004-01-22 08:38:36 51°22.39 2°49.926 6.662802 3.375384 33.511723 2.050341
2004-01-22 08:38:40 51°22.405 2°49.921 6.66537 3.387498 33.636859 2.117759
2004-01-22 08:38:46 51°22.427 2°49.914 6.667889 3.396346 33.729368 2.117759
2004-01-22 08:38:50 51°22.442 2°49.908 6.667889 3.396346 33.729368 2.117759
2004-01-22 08:38:56 51°22.463 2°49.902 6.67031 3.391711 33.672398 2.050341
2004-01-22 08:39:00 51°22.478 2°49.897 6.672433 3.398348 33.743027 2.117759
2004-01-22 08:39:04 51°22.493 2°49.893 6.675248 3.396662 33.718568 2.016631
2004-01-22 08:39:10 51°22.515 2°49.888 6.680236 3.400665 33.760165 1.982922
2004-01-22 08:39:16 51°22.537 2°49.882 6.687297 3.397083 33.718173 1.982922
2004-01-22 08:39:20 51°22.552 2°49.877 6.687297 3.397083 33.718173 1.982922
2004-01-22 08:39:26 51°22.574 2°49.87 6.694753 3.402456 33.775698 1.982922
2004-01-22 08:39:30 51°22.589 2°49.866 6.702799 3.392448 33.662074 1.982922
2004-01-22 08:39:36 51°22.611 2°49.858 6.708328 3.39919 33.732149 1.949212
2004-01-22 08:39:40 51°22.625 2°49.853 6.716521 3.398347 33.716988 1.982922
2004-01-22 08:39:46 51°22.647 2°49.847 6.7219 3.408565 33.823673 1.881794
2004-01-22 08:39:50 51°22.662 2°49.841 6.7219 3.408565 33.823673 1.881794
2004-01-22 08:39:56 51°22.683 2°49.835 6.730487 3.39761 33.697123 1.982922
2004-01-22 08:40:00 51°22.698 2°49.831 6.735914 3.408038 33.804409 2.016631
2004-01-22 08:40:04 51°22.713 2°49.827 6.740206 3.413095 33.854209 2.08405
2004-01-22 08:40:10 51°22.734 2°49.821 6.745485 3.415833 33.879322 1.982922
2004-01-22 08:40:16 51°22.756 2°49.814 6.753279 3.418888 33.90454 2.016631
2004-01-22 08:40:20 51°22.77 2°49.809 6.753279 3.418888 33.90454 2.016631
2004-01-22 08:40:26 51°22.791 2°49.802 6.759296 3.413937 33.84413 1.982922
2004-01-22 08:40:30 51°22.805 2°49.799 6.767236 3.419942 33.905182 2.016631
2004-01-22 08:40:36 51°22.826 2°49.792 6.77557 3.418677 33.88537 1.915503
2004-01-22 08:40:40 51°22.841 2°49.789 6.787156 3.420784 33.903507 1.915503
2004-01-22 08:40:46 51°22.862 2°49.784 6.797804 3.414569 33.827545 1.949212
2004-01-22 08:40:51 51°22.88 2°49.778 6.797804 3.414569 33.827545 1.949212
2004-01-22 08:40:56 51°22.897 2°49.774 6.809632 3.427842 33.966857 2.050341
2004-01-22 08:41:00 51°22.911 2°49.77 6.816433 3.429738 33.978444 1.881794
2004-01-22 08:41:06 51°22.932 2°49.766 6.82673 3.423523 33.901648 2.050341
2004-01-22 08:41:10 51°22.947 2°49.762 6.834761 3.432582 33.990334 2.08405
2004-01-22 08:41:16 51°22.968 2°49.756 6.845253 3.434373 33.999908 1.982922
2004-01-22 08:41:20 51°22.983 2°49.751 6.845253 3.434373 33.999908 1.982922
2004-01-22 08:41:26 51°23.004 2°49.745 6.852295 3.435321 34.002743 2.016631
2004-01-22 08:41:30 51°23.018 2°49.74 6.855447 3.437533 34.017786 1.982922
2004-01-22 08:41:36 51°23.039 2°49.734 6.862883 3.434689 33.978942 2.117759
2004-01-22 08:41:40 51°23.053 2°49.73 6.866625 3.43374 33.957583 2.117759
2004-01-22 08:41:45 51°23.071 2°49.725 6.87017 3.431317 33.921726 2.117759
2004-01-22 08:41:50 51°23.089 2°49.72 6.87017 3.431317 33.921726 2.117759
2004-01-22 08:41:56 51°23.11 2°49.713 6.875093 3.444169 34.057822 2.050341
2004-01-22 08:42:00 51°23.124 2°49.708 6.878884 3.443116 34.040349 2.117759
2004-01-22 08:42:06 51°23.145 2°49.703 6.88041 3.445539 34.062743 2.117759
2004-01-22 08:42:10 51°23.159 2°49.698 6.882182 3.441641 34.014046 2.08405
2004-01-22 08:42:16 51°23.18 2°49.694 6.884496 3.438691 33.978302 2.151469
2004-01-22 08:42:20 51°23.194 2°49.689 6.884496 3.438691 33.978302 2.151469
2004-01-22 08:42:26 51°23.216 2°49.683 6.884496 3.434267 33.924707 2.151469
2004-01-22 08:42:30 51°23.23 2°49.677 6.886415 3.44891 34.082048 2.08405
2004-01-22 08:42:36 51°23.252 2°49.67 6.886514 3.44891 34.079518 2.050341
2004-01-22 08:42:50 51°23.303 2°49.653 6.886218 3.442694 34.008775 2.08405
2004-01-22 08:42:56 51°23.324 2°49.645 6.88548 3.444696 34.029057 2.050341
2004-01-22 08:43:00 51°23.338 2°49.641 6.885874 3.447751 34.060899 2.117759
2004-01-22 08:43:06 51°23.36 2°49.634 6.88612 3.447119 34.055647 1.982922
2004-01-22 08:43:10 51°23.374 2°49.63 6.885529 3.448594 34.070991 2.117759
2004-01-22 08:43:16 51°23.395 2°49.623 6.885677 3.446908 34.052492 2.050341
2004-01-22 08:43:20 51°23.41 2°49.618 6.885677 3.446908 34.052492 2.050341
2004-01-22 08:43:26 51°23.43 2°49.611 6.885825 3.445012 34.029999 2.08405
2004-01-22 08:43:30 51°23.445 2°49.607 6.88676 3.447119 34.053962 2.117759
2004-01-22 08:43:36 51°23.466 2°49.6 6.887843 3.434793 33.919575 1.915503
2004-01-22 08:43:40 51°23.48 2°49.597 6.889221 3.439218 33.96727 2.050341
2004-01-22 08:43:46 51°23.502 2°49.59 6.889369 3.447013 34.052806 2.016631
2004-01-22 08:43:50 51°23.516 2°49.585 6.889369 3.447013 34.052806 2.016631
2004-01-22 08:43:56 51°23.538 2°49.577 6.889122 3.448172 34.065524 1.982922
2004-01-22 08:44:00 51°23.552 2°49.572 6.891042 3.447119 34.052277 2.016631
2004-01-22 08:44:06 51°23.574 2°49.563 6.892814 3.441009 33.985236 1.949212
2004-01-22 08:44:10 51°23.588 2°49.556 6.895275 3.437743 33.950251 1.881794
2004-01-22 08:44:16 51°23.61 2°49.549 6.899212 3.447962 34.059841 1.982922
2004-01-22 08:44:20 51°23.625 2°49.542 6.899212 3.447962 34.059841 1.982922
2004-01-22 08:44:25 51°23.643 2°49.538 6.900787 3.444801 34.025162 1.881794
2004-01-22 08:44:30 51°23.661 2°49.53 6.903887 3.447856 34.057843 1.949212
2004-01-22 08:44:36 51°23.683 2°49.525 6.906298 3.447119 34.048909 1.982922
2004-01-22 08:44:40 51°23.697 2°49.52 6.905166 3.433529 33.895649 2.08405
2004-01-22 08:44:46 51°23.719 2°49.513 6.904969 3.449858 34.071381 1.982922
2004-01-22 08:44:50 51°23.734 2°49.507 6.904969 3.449858 34.071381 1.982922
2004-01-22 08:44:56 51°23.756 2°49.499 6.908168 3.448593 34.054143 1.915503
2004-01-22 08:45:00 51°23.77 2°49.492 6.91112 3.449015 34.05624 2.016631
2004-01-22 08:45:06 51°23.792 2°49.484 6.910776 3.448909 34.054242 2.016631
2004-01-22 08:45:10 51°23.806 2°49.477 6.908315 3.446803 34.031132 1.982922
2004-01-22 08:45:16 51°23.828 2°49.469 6.901574 3.447224 34.036596 1.848084
2004-01-22 08:45:20 51°23.843 2°49.463 6.901574 3.447224 34.036596 1.848084
2004-01-22 08:45:26 51°23.864 2°49.456 6.897539 3.447435 34.035541 1.982922
2004-01-22 08:45:30 51°23.878 2°49.45 6.898129 3.419097 33.724953 1.848084
2004-01-22 08:45:36 51°23.9 2°49.443 6.89434 3.447751 34.038166 1.814375
2004-01-22 08:45:40 51°23.914 2°49.439 6.897391 3.446381 34.027352 1.881794
2004-01-22 08:45:46 51°23.936 2°49.431 6.901229 3.445749 34.022102 1.780665
2004-01-22 08:45:50 51°23.95 2°49.427 6.901229 3.445749 34.022102 1.780665
2004-01-22 08:45:56 51°23.972 2°49.42 6.898424 3.446908 34.035654 1.814375
2004-01-22 08:46:00 51°23.986 2°49.415 6.898523 3.444801 34.01759 1.746956
2004-01-22 08:46:05 51°24.004 2°49.408 6.898375 3.446908 34.03902 1.780665
2004-01-22 08:46:10 51°24.022 2°49.402 6.89872 3.448277 34.053202 1.713247
2004-01-22 08:46:16 51°24.044 2°49.394 6.898572 3.440693 33.970005 1.814375
2004-01-22 08:46:20 51°24.059 2°49.39 6.898572 3.440693 33.970005 1.814375
2004-01-22 08:46:26 51°24.08 2°49.382 6.896111 3.447961 34.050577 1.713247
2004-01-22 08:46:30 51°24.094 2°49.378 6.891337 3.44459 34.011074 1.814375
2004-01-22 08:46:36 51°24.115 2°49.37 6.89119 3.442589 33.990802 1.780665
2004-01-22 08:46:40 51°24.13 2°49.366 6.892519 3.44754 34.045112 1.814375
2004-01-22 08:46:46 51°24.151 2°49.358 6.888729 3.446592 34.034711 1.746956
2004-01-22 08:46:50 51°24.166 2°49.353 6.888729 3.446592 34.034711 1.746956
2004-01-22 08:46:56 51°24.187 2°49.345 6.891977 3.442378 33.991012 1.746956
2004-01-22 08:47:00 51°24.202 2°49.341 6.890156 3.446171 34.032613 1.679537
2004-01-22 08:47:06 51°24.223 2°49.335 6.891633 3.446171 34.03598 1.713247
2004-01-22 08:47:10 51°24.238 2°49.33 6.884643 3.44596 34.035352 1.746956
2004-01-22 08:47:16 51°24.26 2°49.322 6.883364 3.445749 34.03304 1.746956
2004-01-22 08:47:20 51°24.274 2°49.316 6.883364 3.445749 34.03304 1.746956
2004-01-22 08:47:25 51°24.292 2°49.31 6.884693 3.442905 34.002676 1.645828
2004-01-22 08:47:30 51°24.311 2°49.303 6.890894 3.417622 33.724638 1.645828
2004-01-22 08:47:36 51°24.333 2°49.296 6.88863 3.43827 33.953509 1.645828
2004-01-22 08:47:40 51°24.347 2°49.29 6.890993 3.443958 34.017598 1.679537
2004-01-22 08:47:46 51°24.369 2°49.282 6.889713 3.444064 34.019596 1.713247
2004-01-22 08:47:51 51°24.388 2°49.275 6.889713 3.444064 34.019596 1.713247
2004-01-22 08:47:56 51°24.406 2°49.267 6.888237 3.444169 34.018227 1.679537
2004-01-22 08:48:00 51°24.421 2°49.261 6.891633 3.445328 34.031784 1.679537
2004-01-22 08:48:06 51°24.443 2°49.253 6.89242 3.444801 34.024321 1.645828
2004-01-22 08:48:10 51°24.458 2°49.246 6.89114 3.444906 34.025477 1.679537
2004-01-22 08:48:16 51°24.48 2°49.237 6.891436 3.44301 34.004672 1.679537
2004-01-22 08:48:20 51°24.495 2°49.23 6.891436 3.44301 34.004672 1.679537
2004-01-22 08:48:26 51°24.516 2°49.221 6.894143 3.432686 33.888923 1.645828
2004-01-22 08:48:31 51°24.535 2°49.214 6.900934 3.443537 34.00961 1.679537
2004-01-22 08:48:36 51°24.553 2°49.209 6.909595 3.446171 34.03598 1.679537
2004-01-22 08:48:40 51°24.568 2°49.203 6.91604 3.446803 34.044599 1.679537
2004-01-22 08:48:46 51°24.59 2°49.196 6.922288 3.43532 33.916963 1.713247
2004-01-22 08:48:50 51°24.604 2°49.19 6.922288 3.43532 33.916963 1.713247
2004-01-22 08:48:56 51°24.626 2°49.184 6.928634 3.44596 34.031144 1.679537
2004-01-22 08:49:00 51°24.64 2°49.179 6.93429 3.441957 33.978829 1.746956
2004-01-22 08:49:06 51°24.662 2°49.173 6.940881 3.450911 34.071145 1.679537
2004-01-22 08:49:08 51°24.669 2°49.171 6.948749 3.448277 34.036371 1.679537
2004-01-22 08:49:16 51°24.698 2°49.161 6.957747 3.450595 34.054211 1.780665
2004-01-22 08:49:20 51°24.712 2°49.156 6.957747 3.450595 34.054211 1.780665
2004-01-22 08:49:26 51°24.734 2°49.148 6.968415 3.447645 34.01683 1.713247
2004-01-22 08:49:30 51°24.749 2°49.142 6.981785 3.447645 34.010949 1.746956
2004-01-22 08:49:36 51°24.77 2°49.134 6.994022 3.431738 33.830007 1.713247
2004-01-22 08:49:40 51°24.785 2°49.128 7.001048 3.460181 34.134039 1.746956
2004-01-22 08:49:45 51°24.803 2°49.122 7.008467 3.461867 34.143243 1.814375
2004-01-22 08:49:50 51°24.821 2°49.115 7.008467 3.461867 34.143243 1.814375
2004-01-22 08:49:56 51°24.842 2°49.107 7.015639 3.460497 34.118131 1.848084
2004-01-22 08:50:01 51°24.86 2°49.101 7.020208 3.456494 34.061677 1.881794
2004-01-22 08:50:06 51°24.878 2°49.094 7.024088 3.468609 34.183392 2.016631
2004-01-22 08:50:08 51°24.885 2°49.091 7.025267 3.469873 34.193021 2.050341
2004-01-22 08:50:16 51°24.914 2°49.08 7.025856 3.468609 34.170755 2.050341
2004-01-22 08:50:20 51°24.929 2°49.076 7.025856 3.468609 34.170755 2.050341
2004-01-22 08:50:26 51°24.951 2°49.068 7.027526 3.472928 34.211297 1.949212
2004-01-22 08:50:30 51°24.965 2°49.064 7.030178 3.471769 34.192714 1.949212
2004-01-22 08:50:36 51°24.987 2°49.056 7.034254 3.472296 34.197637 2.016631
2004-01-22 08:50:40 51°25.001 2°49.05 7.037986 3.465026 34.115575 2.016631
2004-01-22 08:50:46 51°25.023 2°49.043 7.040638 3.475351 34.226016 2.016631
2004-01-22 08:50:50 51°25.037 2°49.037 7.040638 3.475351 34.226016 2.016631
2004-01-22 08:50:56 51°25.059 2°49.03 7.044369 3.469767 34.162393 2.016631
2004-01-22 08:51:00 51°25.073 2°49.024 7.045008 3.476615 34.233106 1.982922
2004-01-22 08:51:06 51°25.095 2°49.016 7.046726 3.47672 34.23173 1.982922
2004-01-22 08:51:10 51°25.109 2°49.01 7.045695 3.476931 34.23235 2.050341
2004-01-22 08:51:16 51°25.13 2°49.003 7.045548 3.47809 34.240814 2.050341
2004-01-22 08:51:20 51°25.145 2°48.997 7.045548 3.47809 34.240814 2.050341
2004-01-22 08:51:26 51°25.167 2°48.989 7.046235 3.477563 34.232523 2.117759
2004-01-22 08:51:30 51°25.181 2°48.982 7.047217 3.473665 34.188202 2.050341
2004-01-22 08:51:36 51°25.203 2°48.973 7.049328 3.47356 34.186209 1.949212
2004-01-22 08:51:40 51°25.218 2°48.967 7.050065 3.479038 34.246129 1.915503
2004-01-22 08:51:46 51°25.239 2°48.957 7.05139 3.476825 34.221086 2.050341
2004-01-22 08:51:51 51°25.258 2°48.95 7.05139 3.476825 34.221086 2.050341
2004-01-22 08:51:56 51°25.276 2°48.945 7.052863 3.47082 34.155414 2.050341
2004-01-22 08:52:00 51°25.29 2°48.939 7.051685 3.472295 34.170701 2.016631
2004-01-22 08:52:06 51°25.312 2°48.932 7.051685 3.475561 34.205575 1.982922
2004-01-22 08:52:10 51°25.326 2°48.926 7.054091 3.478827 34.23961 1.949212
2004-01-22 08:52:16 51°25.347 2°48.919 7.05684 3.479143 34.240539 1.949212
2004-01-22 08:52:20 51°25.362 2°48.913 7.05684 3.479143 34.240539 1.949212
2004-01-22 08:52:26 51°25.383 2°48.906 7.060669 3.480197 34.252904 1.915503
2004-01-22 08:52:31 51°25.401 2°48.9 7.06489 3.47967 34.2463 1.915503
2004-01-22 08:52:36 51°25.419 2°48.895 7.068964 3.477879 34.226712 1.915503
2004-01-22 08:52:40 51°25.434 2°48.889 7.074068 3.478827 34.235397 1.881794
2004-01-22 08:52:46 51°25.455 2°48.883 7.079417 3.473033 34.167833 1.881794
2004-01-22 08:52:50 51°25.47 2°48.877 7.079417 3.473033 34.167833 1.881794
2004-01-22 08:52:56 51°25.491 2°48.87 7.084423 3.475666 34.195786 1.915503
2004-01-22 08:53:01 51°25.509 2°48.863 7.091979 3.480196 34.23858 1.881794
2004-01-22 08:53:06 51°25.527 2°48.859 7.102232 3.475561 34.184541 1.949212
2004-01-22 08:53:08 51°25.534 2°48.856 7.119988 3.483568 34.26617 1.915503
2004-01-22 08:53:16 51°25.563 2°48.846 7.137788 3.47967 34.219353 1.915503
2004-01-22 08:53:20 51°25.577 2°48.842 7.137788 3.47967 34.219353 1.915503
2004-01-22 08:53:26 51°25.598 2°48.833 7.151416 3.48146 34.233034 1.881794
2004-01-22 08:53:30 51°25.612 2°48.827 7.170481 3.481144 34.221168 1.915503
2004-01-22 08:53:36 51°25.634 2°48.817 7.182192 3.487887 34.279675 1.949212
2004-01-22 08:53:40 51°25.648 2°48.811 7.189051 3.489888 34.291432 1.949212
2004-01-22 08:53:46 51°25.669 2°48.799 7.201884 3.494313 34.322902 1.949212
2004-01-22 08:53:51 51°25.686 2°48.791 7.201884 3.494313 34.322902 1.949212
2004-01-22 08:53:56 51°25.703 2°48.782 7.21212 3.487886 34.238463 2.08405
2004-01-22 08:54:00 51°25.716 2°48.774 7.222697 3.499159 34.346312 2.016631
2004-01-22 08:54:06 51°25.736 2°48.764 7.229845 3.497473 34.317822 2.016631
2004-01-22 08:54:10 51°25.749 2°48.757 7.238217 3.505059 34.388766 2.016631
2004-01-22 08:54:16 51°25.767 2°48.746 7.243797 3.505901 34.387846 2.08405
2004-01-22 08:54:20 51°25.779 2°48.738 7.243797 3.505901 34.387846 2.08405
2004-01-22 08:54:26 51°25.797 2°48.726 7.249915 3.505058 34.369394 2.08405
2004-01-22 08:54:31 51°25.812 2°48.716 7.25799 3.509694 34.408974 2.08405
2004-01-22 08:54:36 51°25.826 2°48.706 7.262932 3.507587 34.378435 2.050341
2004-01-22 08:54:40 51°25.837 2°48.698 7.270027 3.510537 34.404684 2.050341
2004-01-22 08:54:46 51°25.852 2°48.684 7.277953 3.511169 34.403152 1.982922
2004-01-22 08:54:50 51°25.862 2°48.675 7.277953 3.511169 34.403152 1.982922
2004-01-22 08:54:56 51°25.876 2°48.661 7.282942 3.514751 34.436277 2.08405
2004-01-22 08:55:00 51°25.885 2°48.651 7.290524 3.515804 34.441856 1.982922
2004-01-22 08:55:06 51°25.898 2°48.636 7.298007 3.508218 34.351691 2.185178
2004-01-22 08:55:10 51°25.906 2°48.627 7.305391 3.517806 34.451862 2.08405
2004-01-22 08:55:16 51°25.918 2°48.611 7.310917 3.518333 34.449176 2.117759
2004-01-22 08:55:20 51°25.925 2°48.602 7.310917 3.518333 34.449176 2.117759
2004-01-22 08:55:26 51°25.935 2°48.587 7.31698 3.520545 34.467366 2.016631
2004-01-22 08:55:31 51°25.942 2°48.575 7.320646 3.517174 34.423099 2.185178
2004-01-22 08:55:36 51°25.949 2°48.563 7.325779 3.516647 34.409801 2.185178
2004-01-22 08:55:40 51°25.954 2°48.554 7.330716 3.523811 34.481013 2.185178
2004-01-22 08:55:46 51°25.961 2°48.539 7.334138 3.522863 34.466488 2.218888
2004-01-22 08:55:50 51°25.965 2°48.53 7.334138 3.522863 34.466488 2.218888
2004-01-22 08:55:56 51°25.971 2°48.516 7.336631 3.52497 34.483517 2.218888
2004-01-22 08:56:00 51°25.975 2°48.508 7.339563 3.524232 34.471288 2.151469
2004-01-22 08:56:06 51°25.982 2°48.496 7.3423 3.521282 34.434164 2.252597
2004-01-22 08:56:10 51°25.986 2°48.488 7.344841 3.529184 34.51588 2.286306
2004-01-22 08:56:16 51°25.991 2°48.478 7.346747 3.521177 34.424617 2.286306
2004-01-22 08:56:20 51°25.994 2°48.471 7.346747 3.521177 34.424617 2.286306
2004-01-22 08:56:26 51°25.999 2°48.463 7.349239 3.526971 34.485088 2.252597
2004-01-22 08:56:30 51°26.001 2°48.458 7.350852 3.523916 34.44767 2.320016
2004-01-22 08:56:36 51°26.004 2°48.452 7.352807 3.530975 34.52188 2.286306
2004-01-22 08:56:40 51°26.007 2°48.45 7.354224 3.527077 34.476981 2.252597
2004-01-22 08:56:46 51°26.009 2°48.445 7.355836 3.526866 34.473009 2.353725
2004-01-22 08:56:50 51°26.01 2°48.443 7.355836 3.526866 34.473009 2.353725
2004-01-22 08:56:56 51°26.012 2°48.44 7.357595 3.531186 34.517436 2.286306
2004-01-22 08:57:00 51°26.013 2°48.438 7.359061 3.507269 34.255112 2.353725
2004-01-22 08:57:06 51°26.013 2°48.436 7.359989 3.533293 34.535288 2.320016
2004-01-22 08:57:11 51°26.013 2°48.434 7.361113 3.531818 34.517573 2.320016
2004-01-22 08:57:16 51°26.013 2°48.432 7.36209 3.528025 34.475515 2.320016
2004-01-22 08:57:20 51°26.013 2°48.43 7.36209 3.528025 34.475515 2.320016
2004-01-22 08:57:26 51°26.012 2°48.427 7.363702 3.526971 34.463227 2.252597
2004-01-22 08:57:30 51°26.012 2°48.426 7.366047 3.534346 34.53916 2.218888
2004-01-22 08:57:36 51°26.012 2°48.423 7.367611 3.530343 34.494814 2.320016
2004-01-22 08:57:40 51°26.012 2°48.422 7.369369 3.534662 34.54091 2.286306
2004-01-22 08:57:46 51°26.013 2°48.42 7.370884 3.521703 34.398451 2.353725
2004-01-22 08:57:51 51°26.013 2°48.419 7.370884 3.521703 34.398451 2.353725
2004-01-22 08:57:56 51°26.014 2°48.418 7.372593 3.532344 34.5132 2.218888
2004-01-22 08:58:00 51°26.014 2°48.418 7.372886 3.535189 34.542425 2.218888
2004-01-22 08:58:06 51°26.015 2°48.417 7.374108 3.530237 34.486944 2.185178
2004-01-22 08:58:10 51°26.016 2°48.417 7.374889 3.531923 34.503575 2.218888
2004-01-22 08:58:16 51°26.017 2°48.418 7.375719 3.52971 34.475341 2.286306
2004-01-22 08:58:20 51°26.018 2°48.418 7.375719 3.52971 34.475341 2.286306
2004-01-22 08:58:26 51°26.019 2°48.418 7.376061 3.53698 34.555992 2.218888
2004-01-22 08:58:30 51°26.019 2°48.418 7.376648 3.531501 34.494794 2.252597
2004-01-22 08:58:36 51°26.019 2°48.418 7.378748 3.534768 34.530271 2.286306
2004-01-22 08:58:40 51°26.019 2°48.418 7.381971 3.5354 34.53209 2.218888
2004-01-22 08:58:46 51°26.019 2°48.418 7.383095 3.536243 34.542087 2.218888
2004-01-22 08:58:51 51°26.019 2°48.418 7.383095 3.536243 34.542087 2.218888
2004-01-22 08:58:56 51°26.019 2°48.418 7.383974 3.528657 34.4597 2.252597
2004-01-22 08:59:00 51°26.019 2°48.418 7.384804 3.536453 34.543534 2.151469
2004-01-22 08:59:06 51°26.019 2°48.418 7.385439 3.53561 34.532696 2.286306
2004-01-22 08:59:11 51°26.019 2°48.418 7.387002 3.536242 34.534514 2.185178
2004-01-22 08:59:16 51°26.019 2°48.419 7.385879 3.531923 34.487606 2.218888
2004-01-22 08:59:20 51°26.019 2°48.419 7.385879 3.531923 34.487606 2.218888
2004-01-22 08:59:26 51°26.019 2°48.42 7.387148 3.53698 34.542524 2.252597
2004-01-22 08:59:30 51°26.019 2°48.42 7.386367 3.535083 34.519406 2.151469
2004-01-22 08:59:36 51°26.019 2°48.421 7.386758 3.536559 34.536264 2.151469
2004-01-22 08:59:40 51°26.019 2°48.422 7.386855 3.538771 34.55861 2.252597
2004-01-22 08:59:46 51°26.019 2°48.423 7.385879 3.539193 34.561503 2.185178
2004-01-22 08:59:50 51°26.019 2°48.424 7.385879 3.539193 34.561503 2.185178
2004-01-22 08:59:56 51°26.019 2°48.425 7.385341 3.537085 34.53862 2.185178
2004-01-22 09:00:00 51°26.019 2°48.426 7.385928 3.534241 34.507732 2.185178
2004-01-22 09:00:06 51°26.018 2°48.427 7.385439 3.534662 34.512308 2.218888
2004-01-22 09:00:10 51°26.018 2°48.428 7.385097 3.535083 34.517724 2.252597
2004-01-22 09:00:16 51°26.018 2°48.429 7.386855 3.537085 34.540303 2.218888
2004-01-22 09:00:20 51°26.017 2°48.431 7.386855 3.537085 34.540303 2.218888
2004-01-22 09:00:26 51°26.017 2°48.432 7.387002 3.532344 34.488822 2.252597
2004-01-22 09:00:30 51°26.016 2°48.433 7.38876 3.536137 34.530847 2.252597
2004-01-22 09:00:36 51°26.016 2°48.435 7.386269 3.533608 34.502549 2.286306
2004-01-22 09:00:40 51°26.016 2°48.436 7.385976 3.53856 34.554638 2.185178
2004-01-22 09:00:46 51°26.015 2°48.437 7.387979 3.527181 34.432778 2.286306
2004-01-22 09:00:50 51°26.014 2°48.438 7.387979 3.527181 34.432778 2.286306
2004-01-22 09:00:56 51°26.014 2°48.44 7.387002 3.539087 34.560359 2.218888
2004-01-22 09:01:00 51°26.013 2°48.441 7.388028 3.538139 34.551744 2.252597
2004-01-22 09:01:06 51°26.013 2°48.443 7.386074 3.527076 34.430796 2.218888
2004-01-22 09:01:10 51°26.012 2°48.444 7.386367 3.532028 34.48455 2.252597
2004-01-22 09:01:16 51°26.012 2°48.445 7.385732 3.535821 34.524051 2.218888
2004-01-22 09:01:20 51°26.011 2°48.446 7.385732 3.535821 34.524051 2.218888
2004-01-22 09:01:26 51°26.01 2°48.448 7.38412 3.539298 34.561805 2.185178
2004-01-22 09:01:30 51°26.01 2°48.45 7.383974 3.538034 34.548076 2.185178
2004-01-22 09:01:36 51°26.009 2°48.451 7.382997 3.536032 34.52718 2.185178
2004-01-22 09:01:40 51°26.008 2°48.453 7.38373 3.537085 34.539461 2.320016
2004-01-22 09:01:46 51°26.007 2°48.454 7.382558 3.532976 34.496525 2.252597
2004-01-22 09:01:51 51°26.007 2°48.456 7.382558 3.532976 34.496525 2.252597
2004-01-22 09:01:56 51°26.006 2°48.457 7.383388 3.539193 34.563187 2.320016
2004-01-22 09:02:00 51°26.005 2°48.459 7.38373 3.533503 34.502245 2.151469
2004-01-22 09:02:06 51°26.004 2°48.46 7.383241 3.521914 34.376442 2.218888
2004-01-22 09:02:11 51°26.003 2°48.462 7.38246 3.539403 34.567159 2.185178
2004-01-22 09:02:16 51°26.002 2°48.463 7.383876 3.539403 34.566317 2.286306
2004-01-22 09:02:20 51°26.001 2°48.464 7.383876 3.539403 34.566317 2.286306
2004-01-22 09:02:26 51°26 2°48.466 7.381971 3.537612 34.546865 2.218888
2004-01-22 09:02:30 51°26 2°48.467 7.383534 3.538666 34.558307 2.185178
2004-01-22 09:02:36 51°25.998 2°48.469 7.382069 3.537612 34.548548 2.252597
2004-01-22 09:02:40 51°25.997 2°48.47 7.381727 3.538666 34.559149 2.252597
2004-01-22 09:02:46 51°25.996 2°48.472 7.381239 3.538244 34.555413 2.218888
2004-01-22 09:02:50 51°25.995 2°48.473 7.381239 3.538244 34.555413 2.218888
2004-01-22 09:02:56 51°25.994 2°48.475 7.380457 3.53561 34.525126 2.185178
2004-01-22 09:03:00 51°25.993 2°48.476 7.380457 3.536348 34.533135 2.185178
2004-01-22 09:03:06 51°25.992 2°48.478 7.379432 3.530342 34.468768 2.151469
2004-01-22 09:03:10 51°25.99 2°48.479 7.380702 3.537085 34.543668 2.151469
2004-01-22 09:03:16 51°25.989 2°48.481 7.380506 3.535716 34.527952 2.117759
2004-01-22 09:03:20 51°25.988 2°48.482 7.380506 3.535716 34.527952 2.117759
2004-01-22 09:03:26 51°25.987 2°48.483 7.380018 3.534767 34.519337 2.218888
2004-01-22 09:03:31 51°25.986 2°48.485 7.380604 3.516856 34.324075 2.151469
2004-01-22 09:03:36 51°25.985 2°48.486 7.381092 3.538771 34.561977 2.185178
2004-01-22 09:03:40 51°25.984 2°48.487 7.381288 3.536242 34.534514 2.08405
2004-01-22 09:03:46 51°25.983 2°48.488 7.381141 3.530342 34.470447 2.151469
2004-01-22 09:03:50 51°25.982 2°48.489 7.381141 3.530342 34.470447 2.151469
2004-01-22 09:03:56 51°25.982 2°48.49 7.381483 3.53698 34.543365 2.185178
2004-01-22 09:04:00 51°25.981 2°48.491 7.381923 3.537612 34.548548 2.185178
2004-01-22 09:04:06 51°25.98 2°48.492 7.379236 3.534241 34.512775 2.151469
2004-01-22 09:04:10 51°25.979 2°48.493 7.379725 3.529605 34.461601 2.252597
2004-01-22 09:04:16 51°25.978 2°48.494 7.379285 3.538139 34.555111 2.218888
2004-01-22 09:04:20 51°25.977 2°48.495 7.379285 3.538139 34.555111 2.218888
2004-01-22 09:04:26 51°25.976 2°48.496 7.380067 3.537823 34.549995 2.218888
2004-01-22 09:04:30 51°25.975 2°48.497 7.380604 3.53856 34.558005 2.286306
2004-01-22 09:04:36 51°25.974 2°48.498 7.381434 3.53561 34.527649 2.218888
2004-01-22 09:04:40 51°25.973 2°48.499 7.379822 3.536559 34.538788 2.151469
2004-01-22 09:04:46 51°25.972 2°48.499 7.379041 3.532555 34.49531 2.117759
2004-01-22 09:04:50 51°25.971 2°48.5 7.379041 3.532555 34.49531 2.117759
2004-01-22 09:04:56 51°25.97 2°48.501 7.378308 3.537718 34.550534 2.185178
2004-01-22 09:05:00 51°25.969 2°48.502 7.377673 3.530237 34.468464 2.252597
2004-01-22 09:05:06 51°25.968 2°48.503 7.378943 3.538455 34.558544 2.218888
2004-01-22 09:05:11 51°25.967 2°48.504 7.377918 3.537191 34.545654 2.185178
2004-01-22 09:05:16 51°25.966 2°48.504 7.378113 3.536559 34.539629 2.185178
2004-01-22 09:05:20 51°25.965 2°48.505 7.378113 3.536559 34.539629 2.185178
2004-01-22 09:05:26 51°25.964 2°48.506 7.378455 3.538455 34.560227 2.286306
2004-01-22 09:05:31 51°25.963 2°48.507 7.378406 3.537085 34.545351 2.185178
2004-01-22 09:05:36 51°25.962 2°48.509 7.376696 3.530974 34.47899 2.185178
2004-01-22 09:05:40 51°25.962 2°48.51 7.377478 3.537191 34.546495 2.218888
2004-01-22 09:05:46 51°25.961 2°48.511 7.377918 3.537823 34.553361 2.252597
2004-01-22 09:05:50 51°25.96 2°48.512 7.377918 3.537823 34.553361 2.252597
2004-01-22 09:05:56 51°25.958 2°48.513 7.377038 3.534662 34.519874 2.185178
2004-01-22 09:06:00 51°25.958 2°48.514 7.377722 3.53266 34.498135 2.218888
2004-01-22 09:06:06 51°25.956 2°48.515 7.377038 3.538139 34.557636 2.252597
2004-01-22 09:06:10 51°25.956 2°48.516 7.376452 3.530553 34.473575 2.185178
2004-01-22 09:06:16 51°25.955 2°48.517 7.377136 3.537191 34.546495 2.151469
2004-01-22 09:06:20 51°25.954 2°48.518 7.377136 3.537191 34.546495 2.151469
2004-01-22 09:06:26 51°25.953 2°48.519 7.375964 3.533292 34.505 2.252597
2004-01-22 09:06:31 51°25.952 2°48.52 7.376648 3.536664 34.541615 2.185178
2004-01-22 09:06:36 51°25.951 2°48.521 7.375182 3.537085 34.547034 2.218888
2004-01-22 09:06:40 51°25.95 2°48.522 7.377087 3.53561 34.530172 2.185178
2004-01-22 09:06:46 51°25.95 2°48.523 7.375036 3.537718 34.554742 2.252597
2004-01-22 09:06:50 51°25.949 2°48.524 7.375036 3.537718 34.554742 2.252597
2004-01-22 09:06:56 51°25.948 2°48.526 7.376013 3.537718 34.553059 2.151469
2004-01-22 09:07:00 51°25.948 2°48.526 7.37484 3.536769 34.544443 2.151469
2004-01-22 09:07:06 51°25.947 2°48.527 7.374547 3.532344 34.495543 2.488563
2004-01-22 09:07:10 51°25.946 2°48.528 7.375084 3.537191 34.54902 2.117759
2004-01-22 09:07:16 51°25.945 2°48.529 7.375231 3.537612 34.553598 2.286306
2004-01-22 09:07:20 51°25.945 2°48.53 7.375231 3.537612 34.553598 2.286306
2004-01-22 09:07:26 51°25.944 2°48.532 7.377087 3.535716 34.532158 2.151469
2004-01-22 09:07:30 51°25.944 2°48.532 7.374498 3.534346 34.518123 2.117759
2004-01-22 09:07:36 51°25.943 2°48.534 7.375426 3.538034 34.559017 2.218888
2004-01-22 09:07:40 51°25.943 2°48.534 7.373766 3.533187 34.505537 2.218888
2004-01-22 09:07:44 51°25.943 2°48.536 7.372984 3.533292 34.50584 2.08405
2004-01-22 09:07:50 51°25.942 2°48.537 7.372984 3.533292 34.50584 2.08405
2004-01-22 09:07:56 51°25.941 2°48.538 7.371323 3.535189 34.527277 2.218888
2004-01-22 09:08:00 51°25.941 2°48.539 7.372838 3.527814 34.44803 2.185178
2004-01-22 09:08:06 51°25.941 2°48.54 7.373277 3.537191 34.54902 2.218888
2004-01-22 09:08:10 51°25.94 2°48.541 7.372886 3.532976 34.50577 2.185178
2004-01-22 09:08:16 51°25.94 2°48.542 7.370786 3.537823 34.55757 2.218888
2004-01-22 09:08:20 51°25.939 2°48.543 7.370786 3.537823 34.55757 2.218888
2004-01-22 09:08:26 51°25.939 2°48.544 7.37103 3.537928 34.558715 2.218888
2004-01-22 09:08:30 51°25.938 2°48.545 7.371861 3.531817 34.494024 2.185178
2004-01-22 09:08:36 51°25.938 2°48.546 7.370542 3.537402 34.554676 2.218888
2004-01-22 09:08:40 51°25.938 2°48.547 7.370639 3.535294 34.531787 2.252597
2004-01-22 09:08:46 51°25.937 2°48.549 7.371079 3.537402 34.55636 2.218888
2004-01-22 09:08:50 51°25.937 2°48.55 7.371079 3.537402 34.55636 2.218888
2004-01-22 09:08:56 51°25.937 2°48.552 7.370493 3.532133 34.498297 2.117759
2004-01-22 09:09:00 51°25.937 2°48.554 7.37059 3.536875 34.548954 2.185178
2004-01-22 09:09:06 51°25.938 2°48.557 7.372154 3.532976 34.508293 2.252597
2004-01-22 09:09:11 51°25.938 2°48.559 7.3702 3.537191 34.554913 2.185178
2004-01-22 09:09:16 51°25.939 2°48.562 7.369613 3.536769 34.549493 2.151469
2004-01-22 09:09:20 51°25.939 2°48.564 7.369613 3.536769 34.549493 2.151469
2004-01-22 09:09:26 51°25.941 2°48.567 7.37147 3.537085 34.552926 2.08405
2004-01-22 09:09:30 51°25.941 2°48.568 7.370884 3.535821 34.539192 2.151469
2004-01-22 09:09:36 51°25.943 2°48.571 7.370346 3.537191 34.554071 2.117759
2004-01-22 09:09:40 51°25.944 2°48.573 7.371323 3.531185 34.488839 2.185178
2004-01-22 09:09:46 51°25.947 2°48.575 7.371372 3.537191 34.554071 2.252597
2004-01-22 09:09:50 51°25.948 2°48.577 7.371372 3.537191 34.554071 2.252597
2004-01-22 09:09:56 51°25.95 2°48.579 7.370932 3.537191 34.554913 2.117759
2004-01-22 09:10:00 51°25.952 2°48.58 7.3723 3.537191 34.554913 2.252597
2004-01-22 09:10:06 51°25.955 2°48.581 7.371226 3.536559 34.547204 2.252597
2004-01-22 09:10:10 51°25.957 2°48.582 7.372789 3.537085 34.553768 2.151469
2004-01-22 09:10:16 51°25.96 2°48.582 7.371519 3.534557 34.524617 2.151469
2004-01-22 09:10:20 51°25.962 2°48.582 7.371519 3.534557 34.524617 2.151469
2004-01-22 09:10:26 51°25.966 2°48.582 7.371909 3.53698 34.552624 2.252597
2004-01-22 09:10:31 51°25.969 2°48.581 7.372202 3.537296 34.556058 2.185178
2004-01-22 09:10:36 51°25.971 2°48.579 7.372349 3.536875 34.549795 2.218888
2004-01-22 09:10:40 51°25.974 2°48.578 7.371616 3.533187 34.50974 2.218888
2004-01-22 09:10:46 51°25.977 2°48.576 7.37059 3.532871 34.507148 2.185178
2004-01-22 09:10:50 51°25.979 2°48.574 7.37059 3.532871 34.507148 2.185178
2004-01-22 09:10:56 51°25.982 2°48.57 7.370395 3.537402 34.55636 2.320016
2004-01-22 09:11:00 51°25.984 2°48.569 7.370786 3.537191 34.554071 2.218888
2004-01-22 09:11:04 51°25.986 2°48.566 7.370737 3.536348 34.545756 2.218888
2004-01-22 09:11:10 51°25.989 2°48.563 7.371665 3.537296 34.556058 2.320016
2004-01-22 09:11:16 51°25.992 2°48.559 7.37103 3.536137 34.544309 2.185178
2004-01-22 09:11:21 51°25.995 2°48.556 7.37103 3.536137 34.544309 2.185178
2004-01-22 09:11:26 51°25.997 2°48.553 7.371226 3.537296 34.555216 2.252597
2004-01-22 09:11:30 51°25.999 2°48.551 7.372789 3.537191 34.554913 2.185178
2004-01-22 09:11:36 51°26.002 2°48.547 7.371421 3.536664 34.54919 2.185178
2004-01-22 09:11:40 51°26.004 2°48.545 7.371958 3.536032 34.541481 2.286306
2004-01-22 09:11:44 51°26.006 2°48.542 7.372154 3.536875 34.550637 2.218888
2004-01-22 09:11:50 51°26.008 2°48.539 7.372154 3.536875 34.550637 2.218888
2004-01-22 09:11:56 51°26.012 2°48.535 7.372642 3.537507 34.557505 2.218888
2004-01-22 09:12:00 51°26.014 2°48.534 7.371128 3.532555 34.502875 2.151469
2004-01-22 09:12:06 51°26.018 2°48.531 7.372398 3.537085 34.552084 2.185178
2004-01-22 09:12:10 51°26.021 2°48.53 7.372984 3.535189 34.531484 2.151469
2004-01-22 09:12:16 51°26.026 2°48.53 7.377576 3.537718 34.560636 2.353725
2004-01-22 09:12:20 51°26.029 2°48.53 7.377576 3.537718 34.560636 2.353725